<?xml version="1.0" encoding="UTF-8" standalone="no" ?>
<gpx xmlns="http://www.topografix.com/GPX/1/1" xmlns:xsi="http://www.w3.org/2001/XMLSchema-instance" xsi:schemaLocation="http://www.topografix.com/GPX/1/1 http://www.topografix.com/GPX/1/1/gpx.xsd" version="1.1" creator="VisuGPX - https://www.visugpx.com">
  <metadata>
    <name>2019-05-17 12:52:03</name>
  </metadata>
  <trk>
    <name><![CDATA[2019-05-17 12:52:03]]></name>
    <trkseg>
      <trkpt lat="45.88718" lon="6.17784">
        <ele>539.44</ele>
        <time>2019-05-17T07:58:22Z</time>
      </trkpt>
      <trkpt lat="45.88722" lon="6.17782">
        <ele>528.86</ele>
        <time>2019-05-17T07:58:39Z</time>
      </trkpt>
      <trkpt lat="45.88722" lon="6.17784">
        <ele>532.23</ele>
        <time>2019-05-17T07:58:58Z</time>
      </trkpt>
      <trkpt lat="45.88717" lon="6.17786">
        <ele>535.11</ele>
        <time>2019-05-17T07:59:11Z</time>
      </trkpt>
      <trkpt lat="45.88707" lon="6.17795">
        <ele>537.51</ele>
        <time>2019-05-17T07:59:24Z</time>
      </trkpt>
      <trkpt lat="45.88701" lon="6.17802">
        <ele>537.99</ele>
        <time>2019-05-17T07:59:33Z</time>
      </trkpt>
      <trkpt lat="45.88696" lon="6.17808">
        <ele>537.51</ele>
        <time>2019-05-17T07:59:39Z</time>
      </trkpt>
      <trkpt lat="45.88694" lon="6.17811">
        <ele>537.51</ele>
        <time>2019-05-17T07:59:42Z</time>
      </trkpt>
      <trkpt lat="45.88676" lon="6.17834">
        <ele>538.48</ele>
        <time>2019-05-17T08:00:01Z</time>
      </trkpt>
      <trkpt lat="45.88672" lon="6.17855">
        <ele>538.48</ele>
        <time>2019-05-17T08:00:16Z</time>
      </trkpt>
      <trkpt lat="45.88682" lon="6.17871">
        <ele>540.88</ele>
        <time>2019-05-17T08:00:33Z</time>
      </trkpt>
      <trkpt lat="45.88689" lon="6.17877">
        <ele>542.8</ele>
        <time>2019-05-17T08:00:43Z</time>
      </trkpt>
      <trkpt lat="45.88701" lon="6.17882">
        <ele>545.69</ele>
        <time>2019-05-17T08:00:56Z</time>
      </trkpt>
      <trkpt lat="45.88713" lon="6.17882">
        <ele>549.53</ele>
        <time>2019-05-17T08:01:11Z</time>
      </trkpt>
      <trkpt lat="45.88725" lon="6.17883">
        <ele>552.9</ele>
        <time>2019-05-17T08:01:25Z</time>
      </trkpt>
      <trkpt lat="45.88735" lon="6.17878">
        <ele>558.18</ele>
        <time>2019-05-17T08:01:38Z</time>
      </trkpt>
      <trkpt lat="45.88747" lon="6.17866">
        <ele>561.07</ele>
        <time>2019-05-17T08:01:53Z</time>
      </trkpt>
      <trkpt lat="45.88758" lon="6.17873">
        <ele>562.03</ele>
        <time>2019-05-17T08:02:08Z</time>
      </trkpt>
      <trkpt lat="45.88766" lon="6.17883">
        <ele>564.91</ele>
        <time>2019-05-17T08:02:22Z</time>
      </trkpt>
      <trkpt lat="45.88772" lon="6.17893">
        <ele>567.32</ele>
        <time>2019-05-17T08:02:36Z</time>
      </trkpt>
      <trkpt lat="45.88772" lon="6.179">
        <ele>569.72</ele>
        <time>2019-05-17T08:02:49Z</time>
      </trkpt>
      <trkpt lat="45.88775" lon="6.17908">
        <ele>571.16</ele>
        <time>2019-05-17T08:03:02Z</time>
      </trkpt>
      <trkpt lat="45.88785" lon="6.17904">
        <ele>572.6</ele>
        <time>2019-05-17T08:03:12Z</time>
      </trkpt>
      <trkpt lat="45.88797" lon="6.17899">
        <ele>574.53</ele>
        <time>2019-05-17T08:03:24Z</time>
      </trkpt>
      <trkpt lat="45.88801" lon="6.17897">
        <ele>574.53</ele>
        <time>2019-05-17T08:03:29Z</time>
      </trkpt>
      <trkpt lat="45.88807" lon="6.17898">
        <ele>575.49</ele>
        <time>2019-05-17T08:03:35Z</time>
      </trkpt>
      <trkpt lat="45.88814" lon="6.17901">
        <ele>576.45</ele>
        <time>2019-05-17T08:03:43Z</time>
      </trkpt>
      <trkpt lat="45.88827" lon="6.17909">
        <ele>577.41</ele>
        <time>2019-05-17T08:03:57Z</time>
      </trkpt>
      <trkpt lat="45.88837" lon="6.17918">
        <ele>581.25</ele>
        <time>2019-05-17T08:04:11Z</time>
      </trkpt>
      <trkpt lat="45.88847" lon="6.17928">
        <ele>585.1</ele>
        <time>2019-05-17T08:04:25Z</time>
      </trkpt>
      <trkpt lat="45.88847" lon="6.17928">
        <ele>585.58</ele>
        <time>2019-05-17T08:04:26Z</time>
      </trkpt>
      <trkpt lat="45.88856" lon="6.17936">
        <ele>589.43</ele>
        <time>2019-05-17T08:04:40Z</time>
      </trkpt>
      <trkpt lat="45.88864" lon="6.17943">
        <ele>594.23</ele>
        <time>2019-05-17T08:04:54Z</time>
      </trkpt>
      <trkpt lat="45.88873" lon="6.17946">
        <ele>595.67</ele>
        <time>2019-05-17T08:05:08Z</time>
      </trkpt>
      <trkpt lat="45.88876" lon="6.17951">
        <ele>594.71</ele>
        <time>2019-05-17T08:05:21Z</time>
      </trkpt>
      <trkpt lat="45.88882" lon="6.17953">
        <ele>596.15</ele>
        <time>2019-05-17T08:05:33Z</time>
      </trkpt>
      <trkpt lat="45.88886" lon="6.17955">
        <ele>597.12</ele>
        <time>2019-05-17T08:05:42Z</time>
      </trkpt>
      <trkpt lat="45.88893" lon="6.17958">
        <ele>600</ele>
        <time>2019-05-17T08:05:54Z</time>
      </trkpt>
      <trkpt lat="45.88895" lon="6.17961">
        <ele>600.96</ele>
        <time>2019-05-17T08:06:00Z</time>
      </trkpt>
      <trkpt lat="45.889" lon="6.17972">
        <ele>600.96</ele>
        <time>2019-05-17T08:06:13Z</time>
      </trkpt>
      <trkpt lat="45.88901" lon="6.17981">
        <ele>605.77</ele>
        <time>2019-05-17T08:06:27Z</time>
      </trkpt>
      <trkpt lat="45.88901" lon="6.17988">
        <ele>607.69</ele>
        <time>2019-05-17T08:06:39Z</time>
      </trkpt>
      <trkpt lat="45.88902" lon="6.17996">
        <ele>609.61</ele>
        <time>2019-05-17T08:06:51Z</time>
      </trkpt>
      <trkpt lat="45.88904" lon="6.18005">
        <ele>611.54</ele>
        <time>2019-05-17T08:07:07Z</time>
      </trkpt>
      <trkpt lat="45.88902" lon="6.1801">
        <ele>614.42</ele>
        <time>2019-05-17T08:07:17Z</time>
      </trkpt>
      <trkpt lat="45.88901" lon="6.18014">
        <ele>616.34</ele>
        <time>2019-05-17T08:07:31Z</time>
      </trkpt>
      <trkpt lat="45.88899" lon="6.1802">
        <ele>620.67</ele>
        <time>2019-05-17T08:07:43Z</time>
      </trkpt>
      <trkpt lat="45.889" lon="6.18028">
        <ele>621.63</ele>
        <time>2019-05-17T08:07:55Z</time>
      </trkpt>
      <trkpt lat="45.88899" lon="6.18029">
        <ele>623.55</ele>
        <time>2019-05-17T08:08:11Z</time>
      </trkpt>
      <trkpt lat="45.88897" lon="6.1803">
        <ele>631.72</ele>
        <time>2019-05-17T08:08:23Z</time>
      </trkpt>
      <trkpt lat="45.88894" lon="6.1803">
        <ele>635.57</ele>
        <time>2019-05-17T08:08:37Z</time>
      </trkpt>
      <trkpt lat="45.8889" lon="6.1803">
        <ele>640.86</ele>
        <time>2019-05-17T08:08:49Z</time>
      </trkpt>
      <trkpt lat="45.88883" lon="6.18042">
        <ele>644.22</ele>
        <time>2019-05-17T08:09:04Z</time>
      </trkpt>
      <trkpt lat="45.88879" lon="6.18051">
        <ele>647.1</ele>
        <time>2019-05-17T08:09:20Z</time>
      </trkpt>
      <trkpt lat="45.88879" lon="6.1806">
        <ele>648.55</ele>
        <time>2019-05-17T08:09:32Z</time>
      </trkpt>
      <trkpt lat="45.88878" lon="6.18067">
        <ele>652.39</ele>
        <time>2019-05-17T08:09:47Z</time>
      </trkpt>
      <trkpt lat="45.88878" lon="6.18077">
        <ele>651.91</ele>
        <time>2019-05-17T08:09:59Z</time>
      </trkpt>
      <trkpt lat="45.8888" lon="6.18087">
        <ele>649.51</ele>
        <time>2019-05-17T08:10:12Z</time>
      </trkpt>
      <trkpt lat="45.88881" lon="6.18098">
        <ele>650.47</ele>
        <time>2019-05-17T08:10:26Z</time>
      </trkpt>
      <trkpt lat="45.88882" lon="6.18106">
        <ele>651.91</ele>
        <time>2019-05-17T08:10:37Z</time>
      </trkpt>
      <trkpt lat="45.88882" lon="6.1812">
        <ele>652.87</ele>
        <time>2019-05-17T08:10:53Z</time>
      </trkpt>
      <trkpt lat="45.88882" lon="6.18129">
        <ele>653.83</ele>
        <time>2019-05-17T08:11:03Z</time>
      </trkpt>
      <trkpt lat="45.88882" lon="6.18139">
        <ele>655.76</ele>
        <time>2019-05-17T08:11:16Z</time>
      </trkpt>
      <trkpt lat="45.88881" lon="6.18147">
        <ele>661.04</ele>
        <time>2019-05-17T08:11:31Z</time>
      </trkpt>
      <trkpt lat="45.88881" lon="6.18157">
        <ele>666.33</ele>
        <time>2019-05-17T08:11:46Z</time>
      </trkpt>
      <trkpt lat="45.8888" lon="6.18166">
        <ele>665.85</ele>
        <time>2019-05-17T08:12:00Z</time>
      </trkpt>
      <trkpt lat="45.88874" lon="6.18175">
        <ele>668.25</ele>
        <time>2019-05-17T08:12:15Z</time>
      </trkpt>
      <trkpt lat="45.88872" lon="6.18185">
        <ele>672.1</ele>
        <time>2019-05-17T08:12:28Z</time>
      </trkpt>
      <trkpt lat="45.88867" lon="6.18199">
        <ele>676.42</ele>
        <time>2019-05-17T08:12:41Z</time>
      </trkpt>
      <trkpt lat="45.88863" lon="6.18211">
        <ele>679.31</ele>
        <time>2019-05-17T08:12:55Z</time>
      </trkpt>
      <trkpt lat="45.8886" lon="6.18224">
        <ele>681.71</ele>
        <time>2019-05-17T08:13:08Z</time>
      </trkpt>
      <trkpt lat="45.88857" lon="6.18236">
        <ele>685.08</ele>
        <time>2019-05-17T08:13:22Z</time>
      </trkpt>
      <trkpt lat="45.88856" lon="6.18244">
        <ele>688.92</ele>
        <time>2019-05-17T08:13:36Z</time>
      </trkpt>
      <trkpt lat="45.88856" lon="6.18249">
        <ele>692.77</ele>
        <time>2019-05-17T08:13:50Z</time>
      </trkpt>
      <trkpt lat="45.88852" lon="6.18255">
        <ele>697.09</ele>
        <time>2019-05-17T08:14:04Z</time>
      </trkpt>
      <trkpt lat="45.88851" lon="6.18263">
        <ele>698.53</ele>
        <time>2019-05-17T08:14:18Z</time>
      </trkpt>
      <trkpt lat="45.88848" lon="6.18271">
        <ele>699.5</ele>
        <time>2019-05-17T08:14:32Z</time>
      </trkpt>
      <trkpt lat="45.88844" lon="6.18281">
        <ele>699.02</ele>
        <time>2019-05-17T08:14:46Z</time>
      </trkpt>
      <trkpt lat="45.88842" lon="6.18297">
        <ele>698.53</ele>
        <time>2019-05-17T08:15:00Z</time>
      </trkpt>
      <trkpt lat="45.88843" lon="6.1831">
        <ele>699.98</ele>
        <time>2019-05-17T08:15:13Z</time>
      </trkpt>
      <trkpt lat="45.88844" lon="6.18318">
        <ele>703.82</ele>
        <time>2019-05-17T08:15:26Z</time>
      </trkpt>
      <trkpt lat="45.88842" lon="6.18318">
        <ele>709.11</ele>
        <time>2019-05-17T08:15:38Z</time>
      </trkpt>
      <trkpt lat="45.88843" lon="6.18319">
        <ele>713.92</ele>
        <time>2019-05-17T08:15:51Z</time>
      </trkpt>
      <trkpt lat="45.88838" lon="6.18315">
        <ele>721.13</ele>
        <time>2019-05-17T08:16:04Z</time>
      </trkpt>
      <trkpt lat="45.88834" lon="6.18313">
        <ele>724.49</ele>
        <time>2019-05-17T08:16:09Z</time>
      </trkpt>
      <trkpt lat="45.88822" lon="6.18309">
        <ele>734.1</ele>
        <time>2019-05-17T08:16:22Z</time>
      </trkpt>
      <trkpt lat="45.88811" lon="6.18311">
        <ele>739.39</ele>
        <time>2019-05-17T08:16:35Z</time>
      </trkpt>
      <trkpt lat="45.888" lon="6.18316">
        <ele>738.43</ele>
        <time>2019-05-17T08:16:47Z</time>
      </trkpt>
      <trkpt lat="45.88785" lon="6.18332">
        <ele>734.58</ele>
        <time>2019-05-17T08:17:00Z</time>
      </trkpt>
      <trkpt lat="45.8878" lon="6.1834">
        <ele>733.14</ele>
        <time>2019-05-17T08:17:13Z</time>
      </trkpt>
      <trkpt lat="45.88774" lon="6.18347">
        <ele>735.55</ele>
        <time>2019-05-17T08:17:27Z</time>
      </trkpt>
      <trkpt lat="45.88769" lon="6.18351">
        <ele>736.99</ele>
        <time>2019-05-17T08:17:39Z</time>
      </trkpt>
      <trkpt lat="45.88759" lon="6.18369">
        <ele>733.62</ele>
        <time>2019-05-17T08:17:55Z</time>
      </trkpt>
      <trkpt lat="45.88753" lon="6.18381">
        <ele>733.14</ele>
        <time>2019-05-17T08:18:09Z</time>
      </trkpt>
      <trkpt lat="45.88749" lon="6.1839">
        <ele>735.07</ele>
        <time>2019-05-17T08:18:22Z</time>
      </trkpt>
      <trkpt lat="45.88746" lon="6.184">
        <ele>736.51</ele>
        <time>2019-05-17T08:18:36Z</time>
      </trkpt>
      <trkpt lat="45.88741" lon="6.18415">
        <ele>737.47</ele>
        <time>2019-05-17T08:18:50Z</time>
      </trkpt>
      <trkpt lat="45.88742" lon="6.18432">
        <ele>737.95</ele>
        <time>2019-05-17T08:19:02Z</time>
      </trkpt>
      <trkpt lat="45.88743" lon="6.18441">
        <ele>737.95</ele>
        <time>2019-05-17T08:19:12Z</time>
      </trkpt>
      <trkpt lat="45.88742" lon="6.18447">
        <ele>739.87</ele>
        <time>2019-05-17T08:19:24Z</time>
      </trkpt>
      <trkpt lat="45.88741" lon="6.18458">
        <ele>742.76</ele>
        <time>2019-05-17T08:19:39Z</time>
      </trkpt>
      <trkpt lat="45.88737" lon="6.18469">
        <ele>745.64</ele>
        <time>2019-05-17T08:19:55Z</time>
      </trkpt>
      <trkpt lat="45.88737" lon="6.18475">
        <ele>748.52</ele>
        <time>2019-05-17T08:20:06Z</time>
      </trkpt>
      <trkpt lat="45.88733" lon="6.18483">
        <ele>749</ele>
        <time>2019-05-17T08:20:20Z</time>
      </trkpt>
      <trkpt lat="45.8873" lon="6.1849">
        <ele>752.37</ele>
        <time>2019-05-17T08:20:33Z</time>
      </trkpt>
      <trkpt lat="45.88726" lon="6.18494">
        <ele>754.77</ele>
        <time>2019-05-17T08:20:50Z</time>
      </trkpt>
      <trkpt lat="45.88726" lon="6.18499">
        <ele>757.18</ele>
        <time>2019-05-17T08:21:05Z</time>
      </trkpt>
      <trkpt lat="45.88721" lon="6.18504">
        <ele>761.98</ele>
        <time>2019-05-17T08:21:21Z</time>
      </trkpt>
      <trkpt lat="45.88717" lon="6.18508">
        <ele>764.87</ele>
        <time>2019-05-17T08:21:35Z</time>
      </trkpt>
      <trkpt lat="45.88711" lon="6.18519">
        <ele>764.39</ele>
        <time>2019-05-17T08:21:49Z</time>
      </trkpt>
      <trkpt lat="45.88707" lon="6.18525">
        <ele>768.23</ele>
        <time>2019-05-17T08:22:06Z</time>
      </trkpt>
      <trkpt lat="45.88706" lon="6.18529">
        <ele>772.56</ele>
        <time>2019-05-17T08:22:20Z</time>
      </trkpt>
      <trkpt lat="45.88698" lon="6.18531">
        <ele>777.36</ele>
        <time>2019-05-17T08:22:33Z</time>
      </trkpt>
      <trkpt lat="45.88692" lon="6.1854">
        <ele>782.65</ele>
        <time>2019-05-17T08:22:46Z</time>
      </trkpt>
      <trkpt lat="45.88689" lon="6.18543">
        <ele>784.57</ele>
        <time>2019-05-17T08:22:52Z</time>
      </trkpt>
      <trkpt lat="45.88682" lon="6.18546">
        <ele>786.02</ele>
        <time>2019-05-17T08:23:04Z</time>
      </trkpt>
      <trkpt lat="45.88672" lon="6.18556">
        <ele>786.5</ele>
        <time>2019-05-17T08:23:15Z</time>
      </trkpt>
      <trkpt lat="45.88663" lon="6.1856">
        <ele>788.9</ele>
        <time>2019-05-17T08:23:26Z</time>
      </trkpt>
      <trkpt lat="45.88652" lon="6.18559">
        <ele>794.19</ele>
        <time>2019-05-17T08:23:40Z</time>
      </trkpt>
      <trkpt lat="45.88643" lon="6.18572">
        <ele>794.67</ele>
        <time>2019-05-17T08:23:52Z</time>
      </trkpt>
      <trkpt lat="45.88627" lon="6.18588">
        <ele>786.5</ele>
        <time>2019-05-17T08:24:04Z</time>
      </trkpt>
      <trkpt lat="45.88626" lon="6.18593">
        <ele>783.61</ele>
        <time>2019-05-17T08:24:21Z</time>
      </trkpt>
      <trkpt lat="45.88626" lon="6.18597">
        <ele>779.77</ele>
        <time>2019-05-17T08:24:47Z</time>
      </trkpt>
      <trkpt lat="45.88625" lon="6.18597">
        <ele>776.88</ele>
        <time>2019-05-17T08:25:00Z</time>
      </trkpt>
      <trkpt lat="45.88626" lon="6.18598">
        <ele>774</ele>
        <time>2019-05-17T08:25:27Z</time>
      </trkpt>
      <trkpt lat="45.88623" lon="6.18596">
        <ele>776.4</ele>
        <time>2019-05-17T08:25:56Z</time>
      </trkpt>
      <trkpt lat="45.88621" lon="6.18604">
        <ele>780.73</ele>
        <time>2019-05-17T08:26:09Z</time>
      </trkpt>
      <trkpt lat="45.88613" lon="6.18608">
        <ele>784.57</ele>
        <time>2019-05-17T08:26:21Z</time>
      </trkpt>
      <trkpt lat="45.88603" lon="6.18608">
        <ele>791.3</ele>
        <time>2019-05-17T08:26:34Z</time>
      </trkpt>
      <trkpt lat="45.88602" lon="6.18608">
        <ele>791.78</ele>
        <time>2019-05-17T08:26:35Z</time>
      </trkpt>
      <trkpt lat="45.88594" lon="6.18616">
        <ele>795.15</ele>
        <time>2019-05-17T08:26:47Z</time>
      </trkpt>
      <trkpt lat="45.88585" lon="6.18626">
        <ele>801.4</ele>
        <time>2019-05-17T08:27:00Z</time>
      </trkpt>
      <trkpt lat="45.88571" lon="6.18636">
        <ele>805.24</ele>
        <time>2019-05-17T08:27:14Z</time>
      </trkpt>
      <trkpt lat="45.88564" lon="6.18638">
        <ele>810.05</ele>
        <time>2019-05-17T08:27:25Z</time>
      </trkpt>
      <trkpt lat="45.88562" lon="6.18639">
        <ele>810.53</ele>
        <time>2019-05-17T08:27:26Z</time>
      </trkpt>
      <trkpt lat="45.88553" lon="6.18649">
        <ele>810.53</ele>
        <time>2019-05-17T08:27:34Z</time>
      </trkpt>
      <trkpt lat="45.8855" lon="6.18656">
        <ele>810.05</ele>
        <time>2019-05-17T08:27:38Z</time>
      </trkpt>
      <trkpt lat="45.88539" lon="6.18674">
        <ele>806.2</ele>
        <time>2019-05-17T08:27:46Z</time>
      </trkpt>
      <trkpt lat="45.88531" lon="6.18696">
        <ele>806.68</ele>
        <time>2019-05-17T08:28:00Z</time>
      </trkpt>
      <trkpt lat="45.88528" lon="6.1871">
        <ele>807.64</ele>
        <time>2019-05-17T08:28:11Z</time>
      </trkpt>
      <trkpt lat="45.88522" lon="6.18722">
        <ele>811.97</ele>
        <time>2019-05-17T08:28:26Z</time>
      </trkpt>
      <trkpt lat="45.88518" lon="6.1873">
        <ele>812.93</ele>
        <time>2019-05-17T08:28:33Z</time>
      </trkpt>
      <trkpt lat="45.88513" lon="6.18748">
        <ele>812.93</ele>
        <time>2019-05-17T08:28:46Z</time>
      </trkpt>
      <trkpt lat="45.88501" lon="6.18764">
        <ele>813.41</ele>
        <time>2019-05-17T08:28:57Z</time>
      </trkpt>
      <trkpt lat="45.88492" lon="6.18781">
        <ele>818.7</ele>
        <time>2019-05-17T08:29:12Z</time>
      </trkpt>
      <trkpt lat="45.88482" lon="6.18805">
        <ele>819.18</ele>
        <time>2019-05-17T08:29:24Z</time>
      </trkpt>
      <trkpt lat="45.88476" lon="6.18828">
        <ele>817.26</ele>
        <time>2019-05-17T08:29:38Z</time>
      </trkpt>
      <trkpt lat="45.88474" lon="6.18833">
        <ele>816.78</ele>
        <time>2019-05-17T08:29:41Z</time>
      </trkpt>
      <trkpt lat="45.8847" lon="6.18846">
        <ele>817.74</ele>
        <time>2019-05-17T08:29:50Z</time>
      </trkpt>
      <trkpt lat="45.88464" lon="6.18861">
        <ele>818.22</ele>
        <time>2019-05-17T08:30:02Z</time>
      </trkpt>
      <trkpt lat="45.88462" lon="6.18873">
        <ele>821.58</ele>
        <time>2019-05-17T08:30:13Z</time>
      </trkpt>
      <trkpt lat="45.88459" lon="6.18886">
        <ele>825.43</ele>
        <time>2019-05-17T08:30:26Z</time>
      </trkpt>
      <trkpt lat="45.88457" lon="6.18903">
        <ele>832.16</ele>
        <time>2019-05-17T08:30:40Z</time>
      </trkpt>
      <trkpt lat="45.88456" lon="6.18912">
        <ele>833.12</ele>
        <time>2019-05-17T08:30:53Z</time>
      </trkpt>
      <trkpt lat="45.88451" lon="6.18919">
        <ele>837.93</ele>
        <time>2019-05-17T08:31:06Z</time>
      </trkpt>
      <trkpt lat="45.88449" lon="6.18931">
        <ele>840.81</ele>
        <time>2019-05-17T08:31:17Z</time>
      </trkpt>
      <trkpt lat="45.88445" lon="6.18936">
        <ele>843.69</ele>
        <time>2019-05-17T08:31:30Z</time>
      </trkpt>
      <trkpt lat="45.88442" lon="6.18941">
        <ele>846.58</ele>
        <time>2019-05-17T08:31:48Z</time>
      </trkpt>
      <trkpt lat="45.88434" lon="6.18953">
        <ele>848.02</ele>
        <time>2019-05-17T08:32:01Z</time>
      </trkpt>
      <trkpt lat="45.8843" lon="6.18961">
        <ele>848.5</ele>
        <time>2019-05-17T08:32:12Z</time>
      </trkpt>
      <trkpt lat="45.88439" lon="6.18969">
        <ele>849.94</ele>
        <time>2019-05-17T08:32:24Z</time>
      </trkpt>
      <trkpt lat="45.88444" lon="6.18976">
        <ele>847.54</ele>
        <time>2019-05-17T08:32:37Z</time>
      </trkpt>
      <trkpt lat="45.88444" lon="6.18978">
        <ele>849.46</ele>
        <time>2019-05-17T08:32:48Z</time>
      </trkpt>
      <trkpt lat="45.88442" lon="6.18988">
        <ele>853.31</ele>
        <time>2019-05-17T08:33:02Z</time>
      </trkpt>
      <trkpt lat="45.88443" lon="6.18996">
        <ele>857.63</ele>
        <time>2019-05-17T08:33:15Z</time>
      </trkpt>
      <trkpt lat="45.88443" lon="6.19">
        <ele>860.52</ele>
        <time>2019-05-17T08:33:29Z</time>
      </trkpt>
      <trkpt lat="45.88442" lon="6.19005">
        <ele>862.44</ele>
        <time>2019-05-17T08:33:42Z</time>
      </trkpt>
      <trkpt lat="45.88441" lon="6.1901">
        <ele>866.29</ele>
        <time>2019-05-17T08:33:52Z</time>
      </trkpt>
      <trkpt lat="45.88443" lon="6.19011">
        <ele>871.57</ele>
        <time>2019-05-17T08:34:04Z</time>
      </trkpt>
      <trkpt lat="45.88441" lon="6.19012">
        <ele>879.74</ele>
        <time>2019-05-17T08:34:19Z</time>
      </trkpt>
      <trkpt lat="45.88434" lon="6.19009">
        <ele>882.63</ele>
        <time>2019-05-17T08:34:30Z</time>
      </trkpt>
      <trkpt lat="45.88423" lon="6.19015">
        <ele>881.19</ele>
        <time>2019-05-17T08:34:46Z</time>
      </trkpt>
      <trkpt lat="45.88421" lon="6.19025">
        <ele>882.15</ele>
        <time>2019-05-17T08:34:56Z</time>
      </trkpt>
      <trkpt lat="45.88421" lon="6.19027">
        <ele>882.15</ele>
        <time>2019-05-17T08:34:57Z</time>
      </trkpt>
      <trkpt lat="45.88423" lon="6.19042">
        <ele>881.19</ele>
        <time>2019-05-17T08:35:07Z</time>
      </trkpt>
      <trkpt lat="45.88426" lon="6.19053">
        <ele>880.22</ele>
        <time>2019-05-17T08:35:17Z</time>
      </trkpt>
      <trkpt lat="45.88432" lon="6.19063">
        <ele>881.67</ele>
        <time>2019-05-17T08:35:32Z</time>
      </trkpt>
      <trkpt lat="45.88438" lon="6.1907">
        <ele>881.19</ele>
        <time>2019-05-17T08:35:46Z</time>
      </trkpt>
      <trkpt lat="45.88448" lon="6.1908">
        <ele>880.71</ele>
        <time>2019-05-17T08:35:57Z</time>
      </trkpt>
      <trkpt lat="45.88459" lon="6.19088">
        <ele>883.11</ele>
        <time>2019-05-17T08:36:09Z</time>
      </trkpt>
      <trkpt lat="45.88465" lon="6.19093">
        <ele>885.03</ele>
        <time>2019-05-17T08:36:16Z</time>
      </trkpt>
      <trkpt lat="45.88478" lon="6.19103">
        <ele>886.95</ele>
        <time>2019-05-17T08:36:29Z</time>
      </trkpt>
      <trkpt lat="45.88483" lon="6.19106">
        <ele>887.91</ele>
        <time>2019-05-17T08:36:41Z</time>
      </trkpt>
      <trkpt lat="45.88489" lon="6.19116">
        <ele>888.88</ele>
        <time>2019-05-17T08:36:53Z</time>
      </trkpt>
      <trkpt lat="45.88483" lon="6.19114">
        <ele>890.8</ele>
        <time>2019-05-17T08:37:07Z</time>
      </trkpt>
      <trkpt lat="45.88487" lon="6.19111">
        <ele>896.09</ele>
        <time>2019-05-17T08:37:21Z</time>
      </trkpt>
      <trkpt lat="45.88484" lon="6.19116">
        <ele>898.49</ele>
        <time>2019-05-17T08:37:26Z</time>
      </trkpt>
      <trkpt lat="45.88484" lon="6.1912">
        <ele>905.22</ele>
        <time>2019-05-17T08:37:38Z</time>
      </trkpt>
      <trkpt lat="45.88488" lon="6.19124">
        <ele>904.74</ele>
        <time>2019-05-17T08:37:53Z</time>
      </trkpt>
      <trkpt lat="45.88491" lon="6.19129">
        <ele>906.66</ele>
        <time>2019-05-17T08:37:59Z</time>
      </trkpt>
      <trkpt lat="45.885" lon="6.19134">
        <ele>909.06</ele>
        <time>2019-05-17T08:38:10Z</time>
      </trkpt>
      <trkpt lat="45.88508" lon="6.19132">
        <ele>910.03</ele>
        <time>2019-05-17T08:38:22Z</time>
      </trkpt>
      <trkpt lat="45.88515" lon="6.19129">
        <ele>912.91</ele>
        <time>2019-05-17T08:38:32Z</time>
      </trkpt>
      <trkpt lat="45.88522" lon="6.19129">
        <ele>915.31</ele>
        <time>2019-05-17T08:38:44Z</time>
      </trkpt>
      <trkpt lat="45.88525" lon="6.1913">
        <ele>915.79</ele>
        <time>2019-05-17T08:38:57Z</time>
      </trkpt>
      <trkpt lat="45.88524" lon="6.19132">
        <ele>915.79</ele>
        <time>2019-05-17T08:38:59Z</time>
      </trkpt>
      <trkpt lat="45.88525" lon="6.19137">
        <ele>918.68</ele>
        <time>2019-05-17T08:39:13Z</time>
      </trkpt>
      <trkpt lat="45.8853" lon="6.19141">
        <ele>923</ele>
        <time>2019-05-17T08:39:27Z</time>
      </trkpt>
      <trkpt lat="45.88535" lon="6.19135">
        <ele>929.73</ele>
        <time>2019-05-17T08:39:41Z</time>
      </trkpt>
      <trkpt lat="45.88539" lon="6.19131">
        <ele>934.06</ele>
        <time>2019-05-17T08:39:53Z</time>
      </trkpt>
      <trkpt lat="45.88543" lon="6.19125">
        <ele>941.27</ele>
        <time>2019-05-17T08:40:05Z</time>
      </trkpt>
      <trkpt lat="45.88553" lon="6.19121">
        <ele>944.15</ele>
        <time>2019-05-17T08:40:17Z</time>
      </trkpt>
      <trkpt lat="45.88563" lon="6.19119">
        <ele>946.56</ele>
        <time>2019-05-17T08:40:31Z</time>
      </trkpt>
      <trkpt lat="45.8857" lon="6.19113">
        <ele>948.96</ele>
        <time>2019-05-17T08:40:43Z</time>
      </trkpt>
      <trkpt lat="45.88578" lon="6.19114">
        <ele>952.8</ele>
        <time>2019-05-17T08:40:58Z</time>
      </trkpt>
      <trkpt lat="45.8858" lon="6.19113">
        <ele>958.09</ele>
        <time>2019-05-17T08:41:12Z</time>
      </trkpt>
      <trkpt lat="45.8858" lon="6.19111">
        <ele>957.61</ele>
        <time>2019-05-17T08:41:23Z</time>
      </trkpt>
      <trkpt lat="45.88587" lon="6.19113">
        <ele>955.69</ele>
        <time>2019-05-17T08:41:36Z</time>
      </trkpt>
      <trkpt lat="45.8859" lon="6.19112">
        <ele>955.21</ele>
        <time>2019-05-17T08:41:49Z</time>
      </trkpt>
      <trkpt lat="45.88593" lon="6.19108">
        <ele>949.44</ele>
        <time>2019-05-17T08:42:01Z</time>
      </trkpt>
      <trkpt lat="45.88593" lon="6.19108">
        <ele>946.07</ele>
        <time>2019-05-17T08:42:13Z</time>
      </trkpt>
      <trkpt lat="45.88584" lon="6.19115">
        <ele>947.52</ele>
        <time>2019-05-17T08:42:25Z</time>
      </trkpt>
      <trkpt lat="45.88584" lon="6.19124">
        <ele>951.84</ele>
        <time>2019-05-17T08:42:38Z</time>
      </trkpt>
      <trkpt lat="45.88591" lon="6.19128">
        <ele>954.25</ele>
        <time>2019-05-17T08:42:48Z</time>
      </trkpt>
      <trkpt lat="45.88601" lon="6.19128">
        <ele>952.8</ele>
        <time>2019-05-17T08:43:02Z</time>
      </trkpt>
      <trkpt lat="45.88608" lon="6.19127">
        <ele>951.84</ele>
        <time>2019-05-17T08:43:13Z</time>
      </trkpt>
      <trkpt lat="45.88617" lon="6.19127">
        <ele>951.36</ele>
        <time>2019-05-17T08:43:25Z</time>
      </trkpt>
      <trkpt lat="45.88626" lon="6.19123">
        <ele>954.73</ele>
        <time>2019-05-17T08:43:39Z</time>
      </trkpt>
      <trkpt lat="45.88627" lon="6.19119">
        <ele>964.82</ele>
        <time>2019-05-17T08:43:50Z</time>
      </trkpt>
      <trkpt lat="45.88626" lon="6.19116">
        <ele>975.88</ele>
        <time>2019-05-17T08:44:02Z</time>
      </trkpt>
      <trkpt lat="45.88625" lon="6.19112">
        <ele>984.05</ele>
        <time>2019-05-17T08:44:13Z</time>
      </trkpt>
      <trkpt lat="45.88627" lon="6.19101">
        <ele>992.7</ele>
        <time>2019-05-17T08:44:25Z</time>
      </trkpt>
      <trkpt lat="45.88628" lon="6.19092">
        <ele>996.06</ele>
        <time>2019-05-17T08:44:37Z</time>
      </trkpt>
      <trkpt lat="45.88626" lon="6.19088">
        <ele>997.51</ele>
        <time>2019-05-17T08:44:48Z</time>
      </trkpt>
      <trkpt lat="45.88624" lon="6.19088">
        <ele>1001.83</ele>
        <time>2019-05-17T08:44:59Z</time>
      </trkpt>
      <trkpt lat="45.88624" lon="6.19091">
        <ele>1001.83</ele>
        <time>2019-05-17T08:45:02Z</time>
      </trkpt>
      <trkpt lat="45.88624" lon="6.19096">
        <ele>1001.83</ele>
        <time>2019-05-17T08:45:13Z</time>
      </trkpt>
      <trkpt lat="45.88635" lon="6.19077">
        <ele>999.91</ele>
        <time>2019-05-17T08:45:23Z</time>
      </trkpt>
      <trkpt lat="45.8864" lon="6.19062">
        <ele>997.99</ele>
        <time>2019-05-17T08:45:35Z</time>
      </trkpt>
      <trkpt lat="45.88634" lon="6.19064">
        <ele>994.62</ele>
        <time>2019-05-17T08:45:40Z</time>
      </trkpt>
      <trkpt lat="45.88625" lon="6.19071">
        <ele>993.66</ele>
        <time>2019-05-17T08:45:51Z</time>
      </trkpt>
      <trkpt lat="45.88629" lon="6.19069">
        <ele>1002.79</ele>
        <time>2019-05-17T08:46:04Z</time>
      </trkpt>
      <trkpt lat="45.88629" lon="6.19071">
        <ele>1010</ele>
        <time>2019-05-17T08:46:15Z</time>
      </trkpt>
      <trkpt lat="45.88632" lon="6.19075">
        <ele>1018.17</ele>
        <time>2019-05-17T08:46:25Z</time>
      </trkpt>
      <trkpt lat="45.88636" lon="6.19077">
        <ele>1022.98</ele>
        <time>2019-05-17T08:46:34Z</time>
      </trkpt>
      <trkpt lat="45.88645" lon="6.19087">
        <ele>1022.5</ele>
        <time>2019-05-17T08:46:45Z</time>
      </trkpt>
      <trkpt lat="45.88646" lon="6.19094">
        <ele>1026.34</ele>
        <time>2019-05-17T08:46:57Z</time>
      </trkpt>
      <trkpt lat="45.88647" lon="6.191">
        <ele>1029.23</ele>
        <time>2019-05-17T08:47:07Z</time>
      </trkpt>
      <trkpt lat="45.88647" lon="6.19112">
        <ele>1029.71</ele>
        <time>2019-05-17T08:47:18Z</time>
      </trkpt>
      <trkpt lat="45.88647" lon="6.19118">
        <ele>1030.67</ele>
        <time>2019-05-17T08:47:23Z</time>
      </trkpt>
      <trkpt lat="45.88644" lon="6.19118">
        <ele>1027.79</ele>
        <time>2019-05-17T08:47:35Z</time>
      </trkpt>
      <trkpt lat="45.88645" lon="6.19123">
        <ele>1026.83</ele>
        <time>2019-05-17T08:47:48Z</time>
      </trkpt>
      <trkpt lat="45.88648" lon="6.19125">
        <ele>1024.42</ele>
        <time>2019-05-17T08:48:00Z</time>
      </trkpt>
      <trkpt lat="45.88644" lon="6.19137">
        <ele>1024.9</ele>
        <time>2019-05-17T08:48:11Z</time>
      </trkpt>
      <trkpt lat="45.88646" lon="6.19142">
        <ele>1023.46</ele>
        <time>2019-05-17T08:48:21Z</time>
      </trkpt>
      <trkpt lat="45.88644" lon="6.19145">
        <ele>1026.83</ele>
        <time>2019-05-17T08:48:35Z</time>
      </trkpt>
      <trkpt lat="45.88635" lon="6.19167">
        <ele>1022.98</ele>
        <time>2019-05-17T08:48:46Z</time>
      </trkpt>
      <trkpt lat="45.88638" lon="6.19178">
        <ele>1022.02</ele>
        <time>2019-05-17T08:48:58Z</time>
      </trkpt>
      <trkpt lat="45.88645" lon="6.19185">
        <ele>1020.1</ele>
        <time>2019-05-17T08:49:11Z</time>
      </trkpt>
      <trkpt lat="45.88661" lon="6.19188">
        <ele>1031.15</ele>
        <time>2019-05-17T08:49:42Z</time>
      </trkpt>
      <trkpt lat="45.88667" lon="6.19187">
        <ele>1035.48</ele>
        <time>2019-05-17T08:49:55Z</time>
      </trkpt>
      <trkpt lat="45.88673" lon="6.19184">
        <ele>1037.88</ele>
        <time>2019-05-17T08:50:05Z</time>
      </trkpt>
      <trkpt lat="45.88679" lon="6.1918">
        <ele>1043.65</ele>
        <time>2019-05-17T08:50:19Z</time>
      </trkpt>
      <trkpt lat="45.88685" lon="6.19177">
        <ele>1049.42</ele>
        <time>2019-05-17T08:50:32Z</time>
      </trkpt>
      <trkpt lat="45.88692" lon="6.19177">
        <ele>1049.9</ele>
        <time>2019-05-17T08:50:45Z</time>
      </trkpt>
      <trkpt lat="45.88699" lon="6.19176">
        <ele>1049.42</ele>
        <time>2019-05-17T08:50:56Z</time>
      </trkpt>
      <trkpt lat="45.88701" lon="6.19173">
        <ele>1055.67</ele>
        <time>2019-05-17T08:51:08Z</time>
      </trkpt>
      <trkpt lat="45.88708" lon="6.19165">
        <ele>1059.03</ele>
        <time>2019-05-17T08:51:22Z</time>
      </trkpt>
      <trkpt lat="45.88715" lon="6.19163">
        <ele>1061.91</ele>
        <time>2019-05-17T08:51:36Z</time>
      </trkpt>
      <trkpt lat="45.8872" lon="6.1916">
        <ele>1062.39</ele>
        <time>2019-05-17T08:51:56Z</time>
      </trkpt>
      <trkpt lat="45.88738" lon="6.19155">
        <ele>1048.45</ele>
        <time>2019-05-17T08:52:32Z</time>
      </trkpt>
      <trkpt lat="45.88737" lon="6.19156">
        <ele>1036.44</ele>
        <time>2019-05-17T08:52:50Z</time>
      </trkpt>
      <trkpt lat="45.88741" lon="6.19161">
        <ele>1029.23</ele>
        <time>2019-05-17T08:53:20Z</time>
      </trkpt>
      <trkpt lat="45.8875" lon="6.19156">
        <ele>1025.86</ele>
        <time>2019-05-17T08:53:33Z</time>
      </trkpt>
      <trkpt lat="45.88752" lon="6.19148">
        <ele>1027.79</ele>
        <time>2019-05-17T08:53:47Z</time>
      </trkpt>
      <trkpt lat="45.88754" lon="6.19136">
        <ele>1028.27</ele>
        <time>2019-05-17T08:53:57Z</time>
      </trkpt>
      <trkpt lat="45.88757" lon="6.19123">
        <ele>1027.79</ele>
        <time>2019-05-17T08:54:09Z</time>
      </trkpt>
      <trkpt lat="45.8876" lon="6.19116">
        <ele>1027.31</ele>
        <time>2019-05-17T08:54:20Z</time>
      </trkpt>
      <trkpt lat="45.88761" lon="6.19107">
        <ele>1031.15</ele>
        <time>2019-05-17T08:54:33Z</time>
      </trkpt>
      <trkpt lat="45.88761" lon="6.19093">
        <ele>1032.11</ele>
        <time>2019-05-17T08:54:46Z</time>
      </trkpt>
      <trkpt lat="45.88761" lon="6.19085">
        <ele>1034.52</ele>
        <time>2019-05-17T08:54:57Z</time>
      </trkpt>
      <trkpt lat="45.8876" lon="6.19077">
        <ele>1033.07</ele>
        <time>2019-05-17T08:55:07Z</time>
      </trkpt>
      <trkpt lat="45.88759" lon="6.19066">
        <ele>1034.04</ele>
        <time>2019-05-17T08:55:21Z</time>
      </trkpt>
      <trkpt lat="45.8876" lon="6.19053">
        <ele>1034.04</ele>
        <time>2019-05-17T08:55:35Z</time>
      </trkpt>
      <trkpt lat="45.88756" lon="6.19039">
        <ele>1036.44</ele>
        <time>2019-05-17T08:55:49Z</time>
      </trkpt>
      <trkpt lat="45.88765" lon="6.19037">
        <ele>1036.92</ele>
        <time>2019-05-17T08:56:01Z</time>
      </trkpt>
      <trkpt lat="45.88769" lon="6.19028">
        <ele>1037.88</ele>
        <time>2019-05-17T08:56:15Z</time>
      </trkpt>
      <trkpt lat="45.88769" lon="6.19022">
        <ele>1040.76</ele>
        <time>2019-05-17T08:56:27Z</time>
      </trkpt>
      <trkpt lat="45.88768" lon="6.19011">
        <ele>1045.09</ele>
        <time>2019-05-17T08:56:40Z</time>
      </trkpt>
      <trkpt lat="45.88766" lon="6.19001">
        <ele>1049.42</ele>
        <time>2019-05-17T08:56:54Z</time>
      </trkpt>
      <trkpt lat="45.88766" lon="6.18993">
        <ele>1047.97</ele>
        <time>2019-05-17T08:57:04Z</time>
      </trkpt>
      <trkpt lat="45.88767" lon="6.18987">
        <ele>1047.97</ele>
        <time>2019-05-17T08:57:17Z</time>
      </trkpt>
      <trkpt lat="45.88776" lon="6.18982">
        <ele>1048.45</ele>
        <time>2019-05-17T08:57:33Z</time>
      </trkpt>
      <trkpt lat="45.88788" lon="6.18977">
        <ele>1051.82</ele>
        <time>2019-05-17T08:57:48Z</time>
      </trkpt>
      <trkpt lat="45.88795" lon="6.18966">
        <ele>1060.47</ele>
        <time>2019-05-17T08:58:04Z</time>
      </trkpt>
      <trkpt lat="45.88803" lon="6.18959">
        <ele>1066.72</ele>
        <time>2019-05-17T08:58:15Z</time>
      </trkpt>
      <trkpt lat="45.88806" lon="6.18943">
        <ele>1070.57</ele>
        <time>2019-05-17T08:58:26Z</time>
      </trkpt>
      <trkpt lat="45.88804" lon="6.18929">
        <ele>1080.66</ele>
        <time>2019-05-17T08:58:37Z</time>
      </trkpt>
      <trkpt lat="45.888" lon="6.18936">
        <ele>1092.68</ele>
        <time>2019-05-17T08:58:51Z</time>
      </trkpt>
      <trkpt lat="45.88798" lon="6.18939">
        <ele>1097</ele>
        <time>2019-05-17T08:59:03Z</time>
      </trkpt>
      <trkpt lat="45.88797" lon="6.18947">
        <ele>1099.89</ele>
        <time>2019-05-17T08:59:15Z</time>
      </trkpt>
      <trkpt lat="45.88797" lon="6.18963">
        <ele>1100.85</ele>
        <time>2019-05-17T08:59:28Z</time>
      </trkpt>
      <trkpt lat="45.88798" lon="6.18979">
        <ele>1101.33</ele>
        <time>2019-05-17T08:59:40Z</time>
      </trkpt>
      <trkpt lat="45.88804" lon="6.18989">
        <ele>1099.89</ele>
        <time>2019-05-17T08:59:54Z</time>
      </trkpt>
      <trkpt lat="45.88811" lon="6.18993">
        <ele>1101.81</ele>
        <time>2019-05-17T09:00:10Z</time>
      </trkpt>
      <trkpt lat="45.88815" lon="6.18987">
        <ele>1102.77</ele>
        <time>2019-05-17T09:00:22Z</time>
      </trkpt>
      <trkpt lat="45.88823" lon="6.18985">
        <ele>1100.85</ele>
        <time>2019-05-17T09:00:37Z</time>
      </trkpt>
      <trkpt lat="45.88833" lon="6.18979">
        <ele>1099.4</ele>
        <time>2019-05-17T09:00:51Z</time>
      </trkpt>
      <trkpt lat="45.88837" lon="6.18974">
        <ele>1102.29</ele>
        <time>2019-05-17T09:01:04Z</time>
      </trkpt>
      <trkpt lat="45.88835" lon="6.18971">
        <ele>1105.65</ele>
        <time>2019-05-17T09:01:17Z</time>
      </trkpt>
      <trkpt lat="45.88837" lon="6.18971">
        <ele>1106.61</ele>
        <time>2019-05-17T09:01:30Z</time>
      </trkpt>
      <trkpt lat="45.88841" lon="6.18973">
        <ele>1104.21</ele>
        <time>2019-05-17T09:01:47Z</time>
      </trkpt>
      <trkpt lat="45.88843" lon="6.18981">
        <ele>1098.92</ele>
        <time>2019-05-17T09:02:05Z</time>
      </trkpt>
      <trkpt lat="45.88842" lon="6.1899">
        <ele>1093.16</ele>
        <time>2019-05-17T09:02:19Z</time>
      </trkpt>
      <trkpt lat="45.88846" lon="6.19008">
        <ele>1090.27</ele>
        <time>2019-05-17T09:02:33Z</time>
      </trkpt>
      <trkpt lat="45.88854" lon="6.19021">
        <ele>1089.79</ele>
        <time>2019-05-17T09:02:45Z</time>
      </trkpt>
      <trkpt lat="45.88862" lon="6.19028">
        <ele>1091.71</ele>
        <time>2019-05-17T09:02:57Z</time>
      </trkpt>
      <trkpt lat="45.88869" lon="6.19036">
        <ele>1092.68</ele>
        <time>2019-05-17T09:03:08Z</time>
      </trkpt>
      <trkpt lat="45.88876" lon="6.19046">
        <ele>1093.16</ele>
        <time>2019-05-17T09:03:21Z</time>
      </trkpt>
      <trkpt lat="45.8888" lon="6.19057">
        <ele>1095.08</ele>
        <time>2019-05-17T09:03:32Z</time>
      </trkpt>
      <trkpt lat="45.8889" lon="6.19072">
        <ele>1100.85</ele>
        <time>2019-05-17T09:03:46Z</time>
      </trkpt>
      <trkpt lat="45.88896" lon="6.19081">
        <ele>1106.13</ele>
        <time>2019-05-17T09:04:01Z</time>
      </trkpt>
      <trkpt lat="45.88904" lon="6.19082">
        <ele>1107.1</ele>
        <time>2019-05-17T09:04:14Z</time>
      </trkpt>
      <trkpt lat="45.88913" lon="6.19089">
        <ele>1106.61</ele>
        <time>2019-05-17T09:04:28Z</time>
      </trkpt>
      <trkpt lat="45.88919" lon="6.19097">
        <ele>1108.54</ele>
        <time>2019-05-17T09:04:40Z</time>
      </trkpt>
      <trkpt lat="45.88923" lon="6.19105">
        <ele>1115.27</ele>
        <time>2019-05-17T09:04:55Z</time>
      </trkpt>
      <trkpt lat="45.88929" lon="6.19114">
        <ele>1120.55</ele>
        <time>2019-05-17T09:05:08Z</time>
      </trkpt>
      <trkpt lat="45.88938" lon="6.19121">
        <ele>1125.84</ele>
        <time>2019-05-17T09:05:22Z</time>
      </trkpt>
      <trkpt lat="45.88942" lon="6.19126">
        <ele>1130.65</ele>
        <time>2019-05-17T09:05:36Z</time>
      </trkpt>
      <trkpt lat="45.88949" lon="6.19136">
        <ele>1133.53</ele>
        <time>2019-05-17T09:05:51Z</time>
      </trkpt>
      <trkpt lat="45.88957" lon="6.19142">
        <ele>1137.38</ele>
        <time>2019-05-17T09:06:06Z</time>
      </trkpt>
      <trkpt lat="45.88963" lon="6.19144">
        <ele>1140.74</ele>
        <time>2019-05-17T09:06:19Z</time>
      </trkpt>
      <trkpt lat="45.88968" lon="6.19142">
        <ele>1140.74</ele>
        <time>2019-05-17T09:06:34Z</time>
      </trkpt>
      <trkpt lat="45.88975" lon="6.19142">
        <ele>1136.9</ele>
        <time>2019-05-17T09:06:48Z</time>
      </trkpt>
      <trkpt lat="45.8898" lon="6.1915">
        <ele>1140.26</ele>
        <time>2019-05-17T09:07:03Z</time>
      </trkpt>
      <trkpt lat="45.88984" lon="6.19151">
        <ele>1148.91</ele>
        <time>2019-05-17T09:07:17Z</time>
      </trkpt>
      <trkpt lat="45.88989" lon="6.19142">
        <ele>1148.43</ele>
        <time>2019-05-17T09:07:28Z</time>
      </trkpt>
      <trkpt lat="45.88994" lon="6.1914">
        <ele>1145.55</ele>
        <time>2019-05-17T09:07:41Z</time>
      </trkpt>
      <trkpt lat="45.89" lon="6.19146">
        <ele>1145.07</ele>
        <time>2019-05-17T09:07:55Z</time>
      </trkpt>
      <trkpt lat="45.89005" lon="6.19139">
        <ele>1148.43</ele>
        <time>2019-05-17T09:08:07Z</time>
      </trkpt>
      <trkpt lat="45.89008" lon="6.19137">
        <ele>1150.84</ele>
        <time>2019-05-17T09:08:22Z</time>
      </trkpt>
      <trkpt lat="45.89013" lon="6.19141">
        <ele>1157.56</ele>
        <time>2019-05-17T09:08:35Z</time>
      </trkpt>
      <trkpt lat="45.89017" lon="6.19146">
        <ele>1159.97</ele>
        <time>2019-05-17T09:08:48Z</time>
      </trkpt>
      <trkpt lat="45.89022" lon="6.19147">
        <ele>1162.37</ele>
        <time>2019-05-17T09:09:00Z</time>
      </trkpt>
      <trkpt lat="45.89031" lon="6.19154">
        <ele>1165.26</ele>
        <time>2019-05-17T09:09:14Z</time>
      </trkpt>
      <trkpt lat="45.89037" lon="6.19155">
        <ele>1163.33</ele>
        <time>2019-05-17T09:09:27Z</time>
      </trkpt>
      <trkpt lat="45.89046" lon="6.19161">
        <ele>1159.97</ele>
        <time>2019-05-17T09:09:42Z</time>
      </trkpt>
      <trkpt lat="45.89053" lon="6.19161">
        <ele>1157.08</ele>
        <time>2019-05-17T09:09:54Z</time>
      </trkpt>
      <trkpt lat="45.89056" lon="6.19155">
        <ele>1156.6</ele>
        <time>2019-05-17T09:10:06Z</time>
      </trkpt>
      <trkpt lat="45.89056" lon="6.19151">
        <ele>1159.49</ele>
        <time>2019-05-17T09:10:19Z</time>
      </trkpt>
      <trkpt lat="45.8906" lon="6.19148">
        <ele>1163.81</ele>
        <time>2019-05-17T09:10:33Z</time>
      </trkpt>
      <trkpt lat="45.89066" lon="6.19143">
        <ele>1166.22</ele>
        <time>2019-05-17T09:10:44Z</time>
      </trkpt>
      <trkpt lat="45.89075" lon="6.1914">
        <ele>1166.22</ele>
        <time>2019-05-17T09:10:57Z</time>
      </trkpt>
      <trkpt lat="45.89088" lon="6.19142">
        <ele>1164.29</ele>
        <time>2019-05-17T09:11:08Z</time>
      </trkpt>
      <trkpt lat="45.8909" lon="6.19135">
        <ele>1167.66</ele>
        <time>2019-05-17T09:11:22Z</time>
      </trkpt>
      <trkpt lat="45.89091" lon="6.19129">
        <ele>1172.47</ele>
        <time>2019-05-17T09:11:34Z</time>
      </trkpt>
      <trkpt lat="45.89089" lon="6.19127">
        <ele>1179.67</ele>
        <time>2019-05-17T09:11:45Z</time>
      </trkpt>
      <trkpt lat="45.89092" lon="6.19125">
        <ele>1184</ele>
        <time>2019-05-17T09:11:57Z</time>
      </trkpt>
      <trkpt lat="45.89096" lon="6.19122">
        <ele>1182.56</ele>
        <time>2019-05-17T09:12:09Z</time>
      </trkpt>
      <trkpt lat="45.89098" lon="6.19116">
        <ele>1184.48</ele>
        <time>2019-05-17T09:12:20Z</time>
      </trkpt>
      <trkpt lat="45.891" lon="6.19112">
        <ele>1187.85</ele>
        <time>2019-05-17T09:12:34Z</time>
      </trkpt>
      <trkpt lat="45.89106" lon="6.19109">
        <ele>1190.73</ele>
        <time>2019-05-17T09:12:48Z</time>
      </trkpt>
      <trkpt lat="45.89114" lon="6.19105">
        <ele>1193.13</ele>
        <time>2019-05-17T09:13:01Z</time>
      </trkpt>
      <trkpt lat="45.89116" lon="6.19101">
        <ele>1197.94</ele>
        <time>2019-05-17T09:13:12Z</time>
      </trkpt>
      <trkpt lat="45.89116" lon="6.19096">
        <ele>1204.19</ele>
        <time>2019-05-17T09:13:26Z</time>
      </trkpt>
      <trkpt lat="45.89112" lon="6.19093">
        <ele>1210.92</ele>
        <time>2019-05-17T09:13:39Z</time>
      </trkpt>
      <trkpt lat="45.8911" lon="6.1909">
        <ele>1216.69</ele>
        <time>2019-05-17T09:13:51Z</time>
      </trkpt>
      <trkpt lat="45.89104" lon="6.19088">
        <ele>1223.42</ele>
        <time>2019-05-17T09:14:03Z</time>
      </trkpt>
      <trkpt lat="45.89098" lon="6.19085">
        <ele>1221.01</ele>
        <time>2019-05-17T09:14:15Z</time>
      </trkpt>
      <trkpt lat="45.89093" lon="6.19079">
        <ele>1208.03</ele>
        <time>2019-05-17T09:14:25Z</time>
      </trkpt>
      <trkpt lat="45.89084" lon="6.19072">
        <ele>1202.27</ele>
        <time>2019-05-17T09:14:36Z</time>
      </trkpt>
      <trkpt lat="45.89077" lon="6.19066">
        <ele>1196.5</ele>
        <time>2019-05-17T09:14:46Z</time>
      </trkpt>
      <trkpt lat="45.89073" lon="6.19063">
        <ele>1196.02</ele>
        <time>2019-05-17T09:14:57Z</time>
      </trkpt>
      <trkpt lat="45.89067" lon="6.19055">
        <ele>1194.09</ele>
        <time>2019-05-17T09:15:10Z</time>
      </trkpt>
      <trkpt lat="45.89063" lon="6.1905">
        <ele>1194.58</ele>
        <time>2019-05-17T09:15:23Z</time>
      </trkpt>
      <trkpt lat="45.8906" lon="6.19045">
        <ele>1196.5</ele>
        <time>2019-05-17T09:15:35Z</time>
      </trkpt>
      <trkpt lat="45.89056" lon="6.19037">
        <ele>1197.46</ele>
        <time>2019-05-17T09:15:49Z</time>
      </trkpt>
      <trkpt lat="45.89056" lon="6.19031">
        <ele>1198.42</ele>
        <time>2019-05-17T09:16:04Z</time>
      </trkpt>
      <trkpt lat="45.89055" lon="6.19027">
        <ele>1198.42</ele>
        <time>2019-05-17T09:16:26Z</time>
      </trkpt>
      <trkpt lat="45.89052" lon="6.19027">
        <ele>1199.38</ele>
        <time>2019-05-17T09:16:46Z</time>
      </trkpt>
      <trkpt lat="45.89053" lon="6.19027">
        <ele>1200.82</ele>
        <time>2019-05-17T09:17:14Z</time>
      </trkpt>
      <trkpt lat="45.89055" lon="6.19025">
        <ele>1200.82</ele>
        <time>2019-05-17T09:17:46Z</time>
      </trkpt>
      <trkpt lat="45.89056" lon="6.19027">
        <ele>1201.3</ele>
        <time>2019-05-17T09:18:20Z</time>
      </trkpt>
      <trkpt lat="45.89058" lon="6.19025">
        <ele>1206.11</ele>
        <time>2019-05-17T09:18:32Z</time>
      </trkpt>
      <trkpt lat="45.8906" lon="6.1902">
        <ele>1209</ele>
        <time>2019-05-17T09:18:43Z</time>
      </trkpt>
      <trkpt lat="45.89065" lon="6.19029">
        <ele>1212.84</ele>
        <time>2019-05-17T09:18:56Z</time>
      </trkpt>
      <trkpt lat="45.89072" lon="6.19029">
        <ele>1214.28</ele>
        <time>2019-05-17T09:19:09Z</time>
      </trkpt>
      <trkpt lat="45.89072" lon="6.1902">
        <ele>1213.32</ele>
        <time>2019-05-17T09:19:22Z</time>
      </trkpt>
      <trkpt lat="45.89074" lon="6.19018">
        <ele>1216.69</ele>
        <time>2019-05-17T09:19:36Z</time>
      </trkpt>
      <trkpt lat="45.89075" lon="6.19015">
        <ele>1218.13</ele>
        <time>2019-05-17T09:19:48Z</time>
      </trkpt>
      <trkpt lat="45.89076" lon="6.1901">
        <ele>1221.01</ele>
        <time>2019-05-17T09:19:59Z</time>
      </trkpt>
      <trkpt lat="45.89078" lon="6.19008">
        <ele>1221.97</ele>
        <time>2019-05-17T09:20:15Z</time>
      </trkpt>
      <trkpt lat="45.89081" lon="6.19004">
        <ele>1225.34</ele>
        <time>2019-05-17T09:20:26Z</time>
      </trkpt>
      <trkpt lat="45.89081" lon="6.19">
        <ele>1228.22</ele>
        <time>2019-05-17T09:20:37Z</time>
      </trkpt>
      <trkpt lat="45.89083" lon="6.18996">
        <ele>1230.62</ele>
        <time>2019-05-17T09:20:48Z</time>
      </trkpt>
      <trkpt lat="45.89088" lon="6.18991">
        <ele>1232.07</ele>
        <time>2019-05-17T09:21:01Z</time>
      </trkpt>
      <trkpt lat="45.89091" lon="6.18983">
        <ele>1233.51</ele>
        <time>2019-05-17T09:21:15Z</time>
      </trkpt>
      <trkpt lat="45.89094" lon="6.18975">
        <ele>1235.91</ele>
        <time>2019-05-17T09:21:29Z</time>
      </trkpt>
      <trkpt lat="45.89095" lon="6.18973">
        <ele>1235.91</ele>
        <time>2019-05-17T09:21:46Z</time>
      </trkpt>
      <trkpt lat="45.89096" lon="6.18967">
        <ele>1237.83</ele>
        <time>2019-05-17T09:21:59Z</time>
      </trkpt>
      <trkpt lat="45.89097" lon="6.18962">
        <ele>1239.28</ele>
        <time>2019-05-17T09:22:10Z</time>
      </trkpt>
      <trkpt lat="45.891" lon="6.18963">
        <ele>1239.76</ele>
        <time>2019-05-17T09:22:21Z</time>
      </trkpt>
      <trkpt lat="45.89103" lon="6.1896">
        <ele>1244.08</ele>
        <time>2019-05-17T09:22:32Z</time>
      </trkpt>
      <trkpt lat="45.89105" lon="6.18956">
        <ele>1246.97</ele>
        <time>2019-05-17T09:22:47Z</time>
      </trkpt>
      <trkpt lat="45.89111" lon="6.18952">
        <ele>1248.89</ele>
        <time>2019-05-17T09:23:01Z</time>
      </trkpt>
      <trkpt lat="45.89121" lon="6.18947">
        <ele>1250.81</ele>
        <time>2019-05-17T09:23:14Z</time>
      </trkpt>
      <trkpt lat="45.89129" lon="6.18949">
        <ele>1253.22</ele>
        <time>2019-05-17T09:23:28Z</time>
      </trkpt>
      <trkpt lat="45.89131" lon="6.18955">
        <ele>1256.1</ele>
        <time>2019-05-17T09:23:39Z</time>
      </trkpt>
      <trkpt lat="45.89135" lon="6.18954">
        <ele>1258.5</ele>
        <time>2019-05-17T09:23:51Z</time>
      </trkpt>
      <trkpt lat="45.89139" lon="6.1895">
        <ele>1259.46</ele>
        <time>2019-05-17T09:24:03Z</time>
      </trkpt>
      <trkpt lat="45.89146" lon="6.18944">
        <ele>1261.87</ele>
        <time>2019-05-17T09:24:18Z</time>
      </trkpt>
      <trkpt lat="45.89148" lon="6.18941">
        <ele>1259.94</ele>
        <time>2019-05-17T09:24:35Z</time>
      </trkpt>
      <trkpt lat="45.89157" lon="6.18936">
        <ele>1262.83</ele>
        <time>2019-05-17T09:24:50Z</time>
      </trkpt>
      <trkpt lat="45.89164" lon="6.18934">
        <ele>1263.79</ele>
        <time>2019-05-17T09:25:00Z</time>
      </trkpt>
      <trkpt lat="45.89178" lon="6.18936">
        <ele>1263.79</ele>
        <time>2019-05-17T09:25:13Z</time>
      </trkpt>
      <trkpt lat="45.89183" lon="6.18932">
        <ele>1263.79</ele>
        <time>2019-05-17T09:25:20Z</time>
      </trkpt>
      <trkpt lat="45.89189" lon="6.18931">
        <ele>1261.87</ele>
        <time>2019-05-17T09:25:25Z</time>
      </trkpt>
      <trkpt lat="45.89194" lon="6.18926">
        <ele>1258.5</ele>
        <time>2019-05-17T09:25:29Z</time>
      </trkpt>
      <trkpt lat="45.89195" lon="6.18912">
        <ele>1253.7</ele>
        <time>2019-05-17T09:25:44Z</time>
      </trkpt>
      <trkpt lat="45.89192" lon="6.18912">
        <ele>1254.18</ele>
        <time>2019-05-17T09:26:10Z</time>
      </trkpt>
      <trkpt lat="45.8919" lon="6.18912">
        <ele>1252.25</ele>
        <time>2019-05-17T09:26:19Z</time>
      </trkpt>
      <trkpt lat="45.89191" lon="6.18912">
        <ele>1251.77</ele>
        <time>2019-05-17T09:26:34Z</time>
      </trkpt>
      <trkpt lat="45.89191" lon="6.18911">
        <ele>1251.77</ele>
        <time>2019-05-17T09:26:45Z</time>
      </trkpt>
      <trkpt lat="45.8919" lon="6.18911">
        <ele>1250.33</ele>
        <time>2019-05-17T09:26:59Z</time>
      </trkpt>
      <trkpt lat="45.89191" lon="6.1891">
        <ele>1250.33</ele>
        <time>2019-05-17T09:27:07Z</time>
      </trkpt>
      <trkpt lat="45.8919" lon="6.18908">
        <ele>1249.37</ele>
        <time>2019-05-17T09:27:43Z</time>
      </trkpt>
      <trkpt lat="45.89191" lon="6.18908">
        <ele>1251.77</ele>
        <time>2019-05-17T09:27:57Z</time>
      </trkpt>
      <trkpt lat="45.89193" lon="6.1891">
        <ele>1251.77</ele>
        <time>2019-05-17T09:28:16Z</time>
      </trkpt>
      <trkpt lat="45.89193" lon="6.1891">
        <ele>1250.81</ele>
        <time>2019-05-17T09:28:26Z</time>
      </trkpt>
      <trkpt lat="45.89191" lon="6.1891">
        <ele>1252.25</ele>
        <time>2019-05-17T09:28:41Z</time>
      </trkpt>
      <trkpt lat="45.89189" lon="6.18912">
        <ele>1253.7</ele>
        <time>2019-05-17T09:28:51Z</time>
      </trkpt>
      <trkpt lat="45.89191" lon="6.18914">
        <ele>1250.81</ele>
        <time>2019-05-17T09:29:17Z</time>
      </trkpt>
      <trkpt lat="45.89191" lon="6.18912">
        <ele>1251.29</ele>
        <time>2019-05-17T09:29:36Z</time>
      </trkpt>
      <trkpt lat="45.89191" lon="6.18912">
        <ele>1251.77</ele>
        <time>2019-05-17T09:29:52Z</time>
      </trkpt>
      <trkpt lat="45.89191" lon="6.18915">
        <ele>1251.77</ele>
        <time>2019-05-17T09:30:19Z</time>
      </trkpt>
      <trkpt lat="45.89191" lon="6.18913">
        <ele>1251.77</ele>
        <time>2019-05-17T09:30:36Z</time>
      </trkpt>
      <trkpt lat="45.89192" lon="6.18914">
        <ele>1252.25</ele>
        <time>2019-05-17T09:30:53Z</time>
      </trkpt>
      <trkpt lat="45.89193" lon="6.18914">
        <ele>1250.81</ele>
        <time>2019-05-17T09:31:21Z</time>
      </trkpt>
      <trkpt lat="45.89191" lon="6.18915">
        <ele>1251.29</ele>
        <time>2019-05-17T09:31:23Z</time>
      </trkpt>
      <trkpt lat="45.89188" lon="6.18914">
        <ele>1251.77</ele>
        <time>2019-05-17T09:31:37Z</time>
      </trkpt>
      <trkpt lat="45.89191" lon="6.1891">
        <ele>1254.18</ele>
        <time>2019-05-17T09:31:56Z</time>
      </trkpt>
      <trkpt lat="45.89191" lon="6.18912">
        <ele>1253.22</ele>
        <time>2019-05-17T09:32:06Z</time>
      </trkpt>
      <trkpt lat="45.8919" lon="6.18912">
        <ele>1253.22</ele>
        <time>2019-05-17T09:32:08Z</time>
      </trkpt>
      <trkpt lat="45.89196" lon="6.18925">
        <ele>1252.74</ele>
        <time>2019-05-17T09:32:18Z</time>
      </trkpt>
      <trkpt lat="45.892" lon="6.18934">
        <ele>1253.7</ele>
        <time>2019-05-17T09:32:32Z</time>
      </trkpt>
      <trkpt lat="45.89197" lon="6.18931">
        <ele>1255.14</ele>
        <time>2019-05-17T09:32:43Z</time>
      </trkpt>
      <trkpt lat="45.89193" lon="6.18926">
        <ele>1255.14</ele>
        <time>2019-05-17T09:32:58Z</time>
      </trkpt>
      <trkpt lat="45.89194" lon="6.18926">
        <ele>1255.62</ele>
        <time>2019-05-17T09:33:05Z</time>
      </trkpt>
      <trkpt lat="45.89198" lon="6.18935">
        <ele>1256.1</ele>
        <time>2019-05-17T09:33:18Z</time>
      </trkpt>
      <trkpt lat="45.89198" lon="6.18935">
        <ele>1257.06</ele>
        <time>2019-05-17T09:33:44Z</time>
      </trkpt>
      <trkpt lat="45.89195" lon="6.18933">
        <ele>1258.5</ele>
        <time>2019-05-17T09:34:09Z</time>
      </trkpt>
      <trkpt lat="45.89188" lon="6.18934">
        <ele>1260.43</ele>
        <time>2019-05-17T09:34:22Z</time>
      </trkpt>
      <trkpt lat="45.89185" lon="6.18933">
        <ele>1260.91</ele>
        <time>2019-05-17T09:34:35Z</time>
      </trkpt>
      <trkpt lat="45.8918" lon="6.18934">
        <ele>1261.87</ele>
        <time>2019-05-17T09:34:46Z</time>
      </trkpt>
      <trkpt lat="45.89174" lon="6.1893">
        <ele>1263.79</ele>
        <time>2019-05-17T09:34:58Z</time>
      </trkpt>
      <trkpt lat="45.89165" lon="6.18932">
        <ele>1263.79</ele>
        <time>2019-05-17T09:35:11Z</time>
      </trkpt>
      <trkpt lat="45.89154" lon="6.18937">
        <ele>1260.91</ele>
        <time>2019-05-17T09:35:26Z</time>
      </trkpt>
      <trkpt lat="45.89153" lon="6.18939">
        <ele>1260.43</ele>
        <time>2019-05-17T09:35:34Z</time>
      </trkpt>
      <trkpt lat="45.89146" lon="6.18942">
        <ele>1258.02</ele>
        <time>2019-05-17T09:35:48Z</time>
      </trkpt>
      <trkpt lat="45.89141" lon="6.18948">
        <ele>1256.58</ele>
        <time>2019-05-17T09:36:00Z</time>
      </trkpt>
      <trkpt lat="45.89139" lon="6.18952">
        <ele>1255.62</ele>
        <time>2019-05-17T09:36:10Z</time>
      </trkpt>
      <trkpt lat="45.89135" lon="6.18953">
        <ele>1253.7</ele>
        <time>2019-05-17T09:36:22Z</time>
      </trkpt>
      <trkpt lat="45.89134" lon="6.18954">
        <ele>1253.22</ele>
        <time>2019-05-17T09:36:24Z</time>
      </trkpt>
      <trkpt lat="45.8913" lon="6.18959">
        <ele>1252.74</ele>
        <time>2019-05-17T09:36:36Z</time>
      </trkpt>
      <trkpt lat="45.89127" lon="6.1896">
        <ele>1251.77</ele>
        <time>2019-05-17T09:36:48Z</time>
      </trkpt>
      <trkpt lat="45.89121" lon="6.18963">
        <ele>1250.33</ele>
        <time>2019-05-17T09:37:02Z</time>
      </trkpt>
      <trkpt lat="45.89116" lon="6.18958">
        <ele>1253.22</ele>
        <time>2019-05-17T09:37:14Z</time>
      </trkpt>
      <trkpt lat="45.89117" lon="6.18958">
        <ele>1246.49</ele>
        <time>2019-05-17T09:37:27Z</time>
      </trkpt>
      <trkpt lat="45.89113" lon="6.18955">
        <ele>1245.04</ele>
        <time>2019-05-17T09:37:49Z</time>
      </trkpt>
      <trkpt lat="45.89111" lon="6.18954">
        <ele>1244.08</ele>
        <time>2019-05-17T09:38:03Z</time>
      </trkpt>
      <trkpt lat="45.89107" lon="6.18954">
        <ele>1242.64</ele>
        <time>2019-05-17T09:38:21Z</time>
      </trkpt>
      <trkpt lat="45.89101" lon="6.18958">
        <ele>1240.24</ele>
        <time>2019-05-17T09:38:32Z</time>
      </trkpt>
      <trkpt lat="45.89099" lon="6.18961">
        <ele>1238.32</ele>
        <time>2019-05-17T09:38:42Z</time>
      </trkpt>
      <trkpt lat="45.89097" lon="6.18964">
        <ele>1235.91</ele>
        <time>2019-05-17T09:38:51Z</time>
      </trkpt>
      <trkpt lat="45.89095" lon="6.18963">
        <ele>1235.91</ele>
        <time>2019-05-17T09:39:03Z</time>
      </trkpt>
      <trkpt lat="45.89095" lon="6.18968">
        <ele>1235.43</ele>
        <time>2019-05-17T09:39:16Z</time>
      </trkpt>
      <trkpt lat="45.89094" lon="6.18971">
        <ele>1234.47</ele>
        <time>2019-05-17T09:39:30Z</time>
      </trkpt>
      <trkpt lat="45.89091" lon="6.18976">
        <ele>1232.55</ele>
        <time>2019-05-17T09:39:44Z</time>
      </trkpt>
      <trkpt lat="45.89088" lon="6.18981">
        <ele>1232.07</ele>
        <time>2019-05-17T09:39:51Z</time>
      </trkpt>
      <trkpt lat="45.89085" lon="6.1899">
        <ele>1229.66</ele>
        <time>2019-05-17T09:40:00Z</time>
      </trkpt>
      <trkpt lat="45.89082" lon="6.18996">
        <ele>1227.26</ele>
        <time>2019-05-17T09:40:14Z</time>
      </trkpt>
      <trkpt lat="45.8908" lon="6.19">
        <ele>1224.86</ele>
        <time>2019-05-17T09:40:29Z</time>
      </trkpt>
      <trkpt lat="45.89079" lon="6.19">
        <ele>1222.93</ele>
        <time>2019-05-17T09:40:45Z</time>
      </trkpt>
      <trkpt lat="45.89077" lon="6.19002">
        <ele>1221.01</ele>
        <time>2019-05-17T09:41:05Z</time>
      </trkpt>
      <trkpt lat="45.89079" lon="6.19005">
        <ele>1219.09</ele>
        <time>2019-05-17T09:41:21Z</time>
      </trkpt>
      <trkpt lat="45.8908" lon="6.1901">
        <ele>1217.17</ele>
        <time>2019-05-17T09:41:38Z</time>
      </trkpt>
      <trkpt lat="45.89078" lon="6.19014">
        <ele>1214.76</ele>
        <time>2019-05-17T09:41:51Z</time>
      </trkpt>
      <trkpt lat="45.89076" lon="6.19016">
        <ele>1213.8</ele>
        <time>2019-05-17T09:42:01Z</time>
      </trkpt>
      <trkpt lat="45.89076" lon="6.19018">
        <ele>1213.8</ele>
        <time>2019-05-17T09:42:14Z</time>
      </trkpt>
      <trkpt lat="45.89073" lon="6.19019">
        <ele>1210.44</ele>
        <time>2019-05-17T09:42:29Z</time>
      </trkpt>
      <trkpt lat="45.89072" lon="6.19024">
        <ele>1209</ele>
        <time>2019-05-17T09:42:41Z</time>
      </trkpt>
      <trkpt lat="45.89071" lon="6.19029">
        <ele>1207.55</ele>
        <time>2019-05-17T09:42:51Z</time>
      </trkpt>
      <trkpt lat="45.89064" lon="6.19024">
        <ele>1205.63</ele>
        <time>2019-05-17T09:43:05Z</time>
      </trkpt>
      <trkpt lat="45.89057" lon="6.19023">
        <ele>1202.75</ele>
        <time>2019-05-17T09:43:18Z</time>
      </trkpt>
      <trkpt lat="45.89053" lon="6.19031">
        <ele>1202.27</ele>
        <time>2019-05-17T09:43:30Z</time>
      </trkpt>
      <trkpt lat="45.89053" lon="6.19034">
        <ele>1201.79</ele>
        <time>2019-05-17T09:43:37Z</time>
      </trkpt>
      <trkpt lat="45.89053" lon="6.19043">
        <ele>1201.3</ele>
        <time>2019-05-17T09:43:48Z</time>
      </trkpt>
      <trkpt lat="45.89053" lon="6.1905">
        <ele>1201.79</ele>
        <time>2019-05-17T09:43:59Z</time>
      </trkpt>
      <trkpt lat="45.89053" lon="6.19056">
        <ele>1203.23</ele>
        <time>2019-05-17T09:44:11Z</time>
      </trkpt>
      <trkpt lat="45.8906" lon="6.19061">
        <ele>1200.34</ele>
        <time>2019-05-17T09:44:22Z</time>
      </trkpt>
      <trkpt lat="45.8906" lon="6.19064">
        <ele>1201.3</ele>
        <time>2019-05-17T09:44:33Z</time>
      </trkpt>
      <trkpt lat="45.89065" lon="6.19069">
        <ele>1198.9</ele>
        <time>2019-05-17T09:44:47Z</time>
      </trkpt>
      <trkpt lat="45.89068" lon="6.19072">
        <ele>1197.46</ele>
        <time>2019-05-17T09:45:02Z</time>
      </trkpt>
      <trkpt lat="45.89071" lon="6.19072">
        <ele>1196.98</ele>
        <time>2019-05-17T09:45:06Z</time>
      </trkpt>
      <trkpt lat="45.89081" lon="6.19075">
        <ele>1195.06</ele>
        <time>2019-05-17T09:45:18Z</time>
      </trkpt>
      <trkpt lat="45.8909" lon="6.19077">
        <ele>1193.13</ele>
        <time>2019-05-17T09:45:31Z</time>
      </trkpt>
      <trkpt lat="45.89099" lon="6.1908">
        <ele>1192.17</ele>
        <time>2019-05-17T09:45:43Z</time>
      </trkpt>
      <trkpt lat="45.89105" lon="6.19084">
        <ele>1190.73</ele>
        <time>2019-05-17T09:45:56Z</time>
      </trkpt>
      <trkpt lat="45.89112" lon="6.19089">
        <ele>1189.77</ele>
        <time>2019-05-17T09:46:11Z</time>
      </trkpt>
      <trkpt lat="45.89112" lon="6.19087">
        <ele>1188.33</ele>
        <time>2019-05-17T09:46:21Z</time>
      </trkpt>
      <trkpt lat="45.89109" lon="6.19091">
        <ele>1189.77</ele>
        <time>2019-05-17T09:46:35Z</time>
      </trkpt>
      <trkpt lat="45.89107" lon="6.19091">
        <ele>1190.25</ele>
        <time>2019-05-17T09:46:46Z</time>
      </trkpt>
      <trkpt lat="45.89101" lon="6.19096">
        <ele>1188.33</ele>
        <time>2019-05-17T09:46:57Z</time>
      </trkpt>
      <trkpt lat="45.89096" lon="6.19099">
        <ele>1188.33</ele>
        <time>2019-05-17T09:47:09Z</time>
      </trkpt>
      <trkpt lat="45.89096" lon="6.191">
        <ele>1183.52</ele>
        <time>2019-05-17T09:47:22Z</time>
      </trkpt>
      <trkpt lat="45.89095" lon="6.19098">
        <ele>1182.56</ele>
        <time>2019-05-17T09:47:36Z</time>
      </trkpt>
      <trkpt lat="45.89095" lon="6.19098">
        <ele>1182.08</ele>
        <time>2019-05-17T09:47:47Z</time>
      </trkpt>
      <trkpt lat="45.89095" lon="6.19098">
        <ele>1182.08</ele>
        <time>2019-05-17T09:47:48Z</time>
      </trkpt>
      <trkpt lat="45.89089" lon="6.191">
        <ele>1179.19</ele>
        <time>2019-05-17T09:47:59Z</time>
      </trkpt>
      <trkpt lat="45.89084" lon="6.19109">
        <ele>1182.56</ele>
        <time>2019-05-17T09:48:10Z</time>
      </trkpt>
      <trkpt lat="45.89084" lon="6.19115">
        <ele>1186.4</ele>
        <time>2019-05-17T09:48:26Z</time>
      </trkpt>
      <trkpt lat="45.89087" lon="6.19115">
        <ele>1185.44</ele>
        <time>2019-05-17T09:48:48Z</time>
      </trkpt>
      <trkpt lat="45.89086" lon="6.19117">
        <ele>1186.4</ele>
        <time>2019-05-17T09:49:01Z</time>
      </trkpt>
      <trkpt lat="45.89082" lon="6.19119">
        <ele>1188.33</ele>
        <time>2019-05-17T09:49:14Z</time>
      </trkpt>
      <trkpt lat="45.89077" lon="6.19124">
        <ele>1186.88</ele>
        <time>2019-05-17T09:49:26Z</time>
      </trkpt>
      <trkpt lat="45.89071" lon="6.19129">
        <ele>1184.96</ele>
        <time>2019-05-17T09:49:40Z</time>
      </trkpt>
      <trkpt lat="45.89064" lon="6.19136">
        <ele>1185.92</ele>
        <time>2019-05-17T09:49:51Z</time>
      </trkpt>
      <trkpt lat="45.89063" lon="6.19142">
        <ele>1187.85</ele>
        <time>2019-05-17T09:50:04Z</time>
      </trkpt>
      <trkpt lat="45.89055" lon="6.1915">
        <ele>1184.48</ele>
        <time>2019-05-17T09:50:18Z</time>
      </trkpt>
      <trkpt lat="45.89051" lon="6.19151">
        <ele>1178.23</ele>
        <time>2019-05-17T09:50:30Z</time>
      </trkpt>
      <trkpt lat="45.89042" lon="6.19156">
        <ele>1173.43</ele>
        <time>2019-05-17T09:50:48Z</time>
      </trkpt>
      <trkpt lat="45.89032" lon="6.19163">
        <ele>1159.49</ele>
        <time>2019-05-17T09:51:19Z</time>
      </trkpt>
      <trkpt lat="45.89033" lon="6.19156">
        <ele>1153.24</ele>
        <time>2019-05-17T09:51:41Z</time>
      </trkpt>
      <trkpt lat="45.89038" lon="6.19148">
        <ele>1153.24</ele>
        <time>2019-05-17T09:51:55Z</time>
      </trkpt>
      <trkpt lat="45.89034" lon="6.19141">
        <ele>1150.84</ele>
        <time>2019-05-17T09:52:08Z</time>
      </trkpt>
      <trkpt lat="45.89034" lon="6.19138">
        <ele>1147.47</ele>
        <time>2019-05-17T09:52:26Z</time>
      </trkpt>
      <trkpt lat="45.89031" lon="6.19137">
        <ele>1146.99</ele>
        <time>2019-05-17T09:52:39Z</time>
      </trkpt>
      <trkpt lat="45.8903" lon="6.19147">
        <ele>1145.07</ele>
        <time>2019-05-17T09:53:01Z</time>
      </trkpt>
      <trkpt lat="45.89021" lon="6.19142">
        <ele>1145.55</ele>
        <time>2019-05-17T09:53:28Z</time>
      </trkpt>
      <trkpt lat="45.89014" lon="6.19136">
        <ele>1149.87</ele>
        <time>2019-05-17T09:53:54Z</time>
      </trkpt>
      <trkpt lat="45.89011" lon="6.1914">
        <ele>1151.32</ele>
        <time>2019-05-17T09:54:09Z</time>
      </trkpt>
      <trkpt lat="45.89011" lon="6.19142">
        <ele>1151.32</ele>
        <time>2019-05-17T09:54:21Z</time>
      </trkpt>
      <trkpt lat="45.89002" lon="6.19134">
        <ele>1152.28</ele>
        <time>2019-05-17T09:54:35Z</time>
      </trkpt>
      <trkpt lat="45.88999" lon="6.19135">
        <ele>1148.91</ele>
        <time>2019-05-17T09:54:48Z</time>
      </trkpt>
      <trkpt lat="45.88997" lon="6.19141">
        <ele>1149.39</ele>
        <time>2019-05-17T09:54:59Z</time>
      </trkpt>
      <trkpt lat="45.88996" lon="6.19143">
        <ele>1154.2</ele>
        <time>2019-05-17T09:55:09Z</time>
      </trkpt>
      <trkpt lat="45.88994" lon="6.19142">
        <ele>1157.08</ele>
        <time>2019-05-17T09:55:20Z</time>
      </trkpt>
      <trkpt lat="45.8899" lon="6.19141">
        <ele>1158.05</ele>
        <time>2019-05-17T09:55:34Z</time>
      </trkpt>
      <trkpt lat="45.8898" lon="6.19138">
        <ele>1153.72</ele>
        <time>2019-05-17T09:55:46Z</time>
      </trkpt>
      <trkpt lat="45.88973" lon="6.19138">
        <ele>1152.76</ele>
        <time>2019-05-17T09:55:58Z</time>
      </trkpt>
      <trkpt lat="45.88971" lon="6.19138">
        <ele>1156.6</ele>
        <time>2019-05-17T09:56:09Z</time>
      </trkpt>
      <trkpt lat="45.88969" lon="6.19138">
        <ele>1157.08</ele>
        <time>2019-05-17T09:56:21Z</time>
      </trkpt>
      <trkpt lat="45.88966" lon="6.1914">
        <ele>1157.56</ele>
        <time>2019-05-17T09:56:32Z</time>
      </trkpt>
      <trkpt lat="45.8896" lon="6.19144">
        <ele>1156.12</ele>
        <time>2019-05-17T09:56:47Z</time>
      </trkpt>
      <trkpt lat="45.88955" lon="6.1915">
        <ele>1154.2</ele>
        <time>2019-05-17T09:56:59Z</time>
      </trkpt>
      <trkpt lat="45.88952" lon="6.19155">
        <ele>1153.24</ele>
        <time>2019-05-17T09:57:09Z</time>
      </trkpt>
      <trkpt lat="45.88945" lon="6.1915">
        <ele>1152.76</ele>
        <time>2019-05-17T09:57:23Z</time>
      </trkpt>
      <trkpt lat="45.8894" lon="6.19143">
        <ele>1148.43</ele>
        <time>2019-05-17T09:57:34Z</time>
      </trkpt>
      <trkpt lat="45.88936" lon="6.19145">
        <ele>1147.95</ele>
        <time>2019-05-17T09:57:42Z</time>
      </trkpt>
      <trkpt lat="45.88926" lon="6.19146">
        <ele>1149.39</ele>
        <time>2019-05-17T09:57:49Z</time>
      </trkpt>
      <trkpt lat="45.88914" lon="6.19131">
        <ele>1139.78</ele>
        <time>2019-05-17T09:57:57Z</time>
      </trkpt>
      <trkpt lat="45.88905" lon="6.19098">
        <ele>1121.03</ele>
        <time>2019-05-17T09:58:10Z</time>
      </trkpt>
      <trkpt lat="45.88895" lon="6.19063">
        <ele>1102.77</ele>
        <time>2019-05-17T09:58:21Z</time>
      </trkpt>
      <trkpt lat="45.88892" lon="6.1906">
        <ele>1099.89</ele>
        <time>2019-05-17T09:58:25Z</time>
      </trkpt>
      <trkpt lat="45.88886" lon="6.19051">
        <ele>1098.44</ele>
        <time>2019-05-17T09:58:33Z</time>
      </trkpt>
      <trkpt lat="45.88876" lon="6.19041">
        <ele>1097.96</ele>
        <time>2019-05-17T09:58:46Z</time>
      </trkpt>
      <trkpt lat="45.88869" lon="6.19029">
        <ele>1099.89</ele>
        <time>2019-05-17T09:58:56Z</time>
      </trkpt>
      <trkpt lat="45.8886" lon="6.19012">
        <ele>1096.52</ele>
        <time>2019-05-17T09:59:09Z</time>
      </trkpt>
      <trkpt lat="45.88857" lon="6.19004">
        <ele>1095.56</ele>
        <time>2019-05-17T09:59:21Z</time>
      </trkpt>
      <trkpt lat="45.88857" lon="6.18994">
        <ele>1088.83</ele>
        <time>2019-05-17T09:59:39Z</time>
      </trkpt>
      <trkpt lat="45.88858" lon="6.18987">
        <ele>1084.5</ele>
        <time>2019-05-17T09:59:53Z</time>
      </trkpt>
      <trkpt lat="45.88857" lon="6.18982">
        <ele>1085.47</ele>
        <time>2019-05-17T10:00:02Z</time>
      </trkpt>
      <trkpt lat="45.88852" lon="6.18977">
        <ele>1084.02</ele>
        <time>2019-05-17T10:00:16Z</time>
      </trkpt>
      <trkpt lat="45.88845" lon="6.18982">
        <ele>1083.06</ele>
        <time>2019-05-17T10:00:26Z</time>
      </trkpt>
      <trkpt lat="45.88835" lon="6.18988">
        <ele>1083.06</ele>
        <time>2019-05-17T10:00:40Z</time>
      </trkpt>
      <trkpt lat="45.88831" lon="6.18995">
        <ele>1082.58</ele>
        <time>2019-05-17T10:00:51Z</time>
      </trkpt>
      <trkpt lat="45.88828" lon="6.18998">
        <ele>1082.1</ele>
        <time>2019-05-17T10:00:57Z</time>
      </trkpt>
      <trkpt lat="45.88827" lon="6.18993">
        <ele>1078.74</ele>
        <time>2019-05-17T10:01:10Z</time>
      </trkpt>
      <trkpt lat="45.88827" lon="6.18986">
        <ele>1082.1</ele>
        <time>2019-05-17T10:01:23Z</time>
      </trkpt>
      <trkpt lat="45.88825" lon="6.18973">
        <ele>1082.58</ele>
        <time>2019-05-17T10:01:33Z</time>
      </trkpt>
      <trkpt lat="45.88825" lon="6.18961">
        <ele>1084.5</ele>
        <time>2019-05-17T10:01:53Z</time>
      </trkpt>
      <trkpt lat="45.88823" lon="6.18953">
        <ele>1086.43</ele>
        <time>2019-05-17T10:02:05Z</time>
      </trkpt>
      <trkpt lat="45.88822" lon="6.1894">
        <ele>1084.5</ele>
        <time>2019-05-17T10:02:17Z</time>
      </trkpt>
      <trkpt lat="45.88822" lon="6.18924">
        <ele>1079.7</ele>
        <time>2019-05-17T10:02:30Z</time>
      </trkpt>
      <trkpt lat="45.88819" lon="6.18926">
        <ele>1079.22</ele>
        <time>2019-05-17T10:02:42Z</time>
      </trkpt>
      <trkpt lat="45.88817" lon="6.18931">
        <ele>1080.18</ele>
        <time>2019-05-17T10:02:52Z</time>
      </trkpt>
      <trkpt lat="45.88814" lon="6.18938">
        <ele>1079.22</ele>
        <time>2019-05-17T10:03:05Z</time>
      </trkpt>
      <trkpt lat="45.88805" lon="6.18946">
        <ele>1076.81</ele>
        <time>2019-05-17T10:03:17Z</time>
      </trkpt>
      <trkpt lat="45.88793" lon="6.1895">
        <ele>1074.41</ele>
        <time>2019-05-17T10:03:27Z</time>
      </trkpt>
      <trkpt lat="45.88785" lon="6.18953">
        <ele>1072.49</ele>
        <time>2019-05-17T10:03:39Z</time>
      </trkpt>
      <trkpt lat="45.8876" lon="6.18964">
        <ele>1067.68</ele>
        <time>2019-05-17T10:03:51Z</time>
      </trkpt>
      <trkpt lat="45.88757" lon="6.18977">
        <ele>1067.68</ele>
        <time>2019-05-17T10:04:03Z</time>
      </trkpt>
      <trkpt lat="45.88757" lon="6.18985">
        <ele>1070.57</ele>
        <time>2019-05-17T10:04:16Z</time>
      </trkpt>
      <trkpt lat="45.88758" lon="6.18996">
        <ele>1072.97</ele>
        <time>2019-05-17T10:04:30Z</time>
      </trkpt>
      <trkpt lat="45.88756" lon="6.19003">
        <ele>1080.18</ele>
        <time>2019-05-17T10:04:44Z</time>
      </trkpt>
      <trkpt lat="45.88761" lon="6.19009">
        <ele>1077.29</ele>
        <time>2019-05-17T10:05:10Z</time>
      </trkpt>
      <trkpt lat="45.88756" lon="6.19012">
        <ele>1072.97</ele>
        <time>2019-05-17T10:05:21Z</time>
      </trkpt>
      <trkpt lat="45.88754" lon="6.19016">
        <ele>1072.01</ele>
        <time>2019-05-17T10:05:27Z</time>
      </trkpt>
      <trkpt lat="45.8875" lon="6.19037">
        <ele>1074.89</ele>
        <time>2019-05-17T10:05:41Z</time>
      </trkpt>
      <trkpt lat="45.88749" lon="6.19053">
        <ele>1078.26</ele>
        <time>2019-05-17T10:05:48Z</time>
      </trkpt>
      <trkpt lat="45.88745" lon="6.19063">
        <ele>1084.5</ele>
        <time>2019-05-17T10:05:56Z</time>
      </trkpt>
      <trkpt lat="45.88739" lon="6.19081">
        <ele>1095.56</ele>
        <time>2019-05-17T10:06:08Z</time>
      </trkpt>
      <trkpt lat="45.88737" lon="6.19085">
        <ele>1099.4</ele>
        <time>2019-05-17T10:06:11Z</time>
      </trkpt>
      <trkpt lat="45.88736" lon="6.19088">
        <ele>1101.33</ele>
        <time>2019-05-17T10:06:13Z</time>
      </trkpt>
      <trkpt lat="45.88732" lon="6.19094">
        <ele>1103.73</ele>
        <time>2019-05-17T10:06:17Z</time>
      </trkpt>
      <trkpt lat="45.88733" lon="6.19106">
        <ele>1094.6</ele>
        <time>2019-05-17T10:06:28Z</time>
      </trkpt>
      <trkpt lat="45.88734" lon="6.19107">
        <ele>1093.16</ele>
        <time>2019-05-17T10:06:29Z</time>
      </trkpt>
      <trkpt lat="45.88734" lon="6.1911">
        <ele>1087.87</ele>
        <time>2019-05-17T10:06:32Z</time>
      </trkpt>
      <trkpt lat="45.88732" lon="6.1911">
        <ele>1077.29</ele>
        <time>2019-05-17T10:06:42Z</time>
      </trkpt>
      <trkpt lat="45.88733" lon="6.19112">
        <ele>1070.57</ele>
        <time>2019-05-17T10:06:57Z</time>
      </trkpt>
      <trkpt lat="45.88732" lon="6.19124">
        <ele>1063.36</ele>
        <time>2019-05-17T10:07:10Z</time>
      </trkpt>
      <trkpt lat="45.88732" lon="6.19134">
        <ele>1060.95</ele>
        <time>2019-05-17T10:07:17Z</time>
      </trkpt>
      <trkpt lat="45.88729" lon="6.19146">
        <ele>1047.97</ele>
        <time>2019-05-17T10:07:29Z</time>
      </trkpt>
      <trkpt lat="45.88722" lon="6.19158">
        <ele>1039.32</ele>
        <time>2019-05-17T10:07:40Z</time>
      </trkpt>
      <trkpt lat="45.8872" lon="6.1916">
        <ele>1037.4</ele>
        <time>2019-05-17T10:07:43Z</time>
      </trkpt>
      <trkpt lat="45.88712" lon="6.19164">
        <ele>1031.15</ele>
        <time>2019-05-17T10:07:55Z</time>
      </trkpt>
      <trkpt lat="45.88699" lon="6.1917">
        <ele>1022.98</ele>
        <time>2019-05-17T10:08:06Z</time>
      </trkpt>
      <trkpt lat="45.88686" lon="6.19177">
        <ele>1015.29</ele>
        <time>2019-05-17T10:08:17Z</time>
      </trkpt>
      <trkpt lat="45.88683" lon="6.19179">
        <ele>1012.89</ele>
        <time>2019-05-17T10:08:27Z</time>
      </trkpt>
      <trkpt lat="45.8868" lon="6.1918">
        <ele>1014.33</ele>
        <time>2019-05-17T10:08:39Z</time>
      </trkpt>
      <trkpt lat="45.8866" lon="6.19185">
        <ele>1014.81</ele>
        <time>2019-05-17T10:08:53Z</time>
      </trkpt>
      <trkpt lat="45.88658" lon="6.19181">
        <ele>1025.38</ele>
        <time>2019-05-17T10:09:06Z</time>
      </trkpt>
      <trkpt lat="45.88657" lon="6.19175">
        <ele>1039.32</ele>
        <time>2019-05-17T10:09:19Z</time>
      </trkpt>
      <trkpt lat="45.88657" lon="6.19169">
        <ele>1042.21</ele>
        <time>2019-05-17T10:09:30Z</time>
      </trkpt>
      <trkpt lat="45.8866" lon="6.19156">
        <ele>1043.65</ele>
        <time>2019-05-17T10:09:43Z</time>
      </trkpt>
      <trkpt lat="45.88664" lon="6.19147">
        <ele>1045.09</ele>
        <time>2019-05-17T10:09:55Z</time>
      </trkpt>
      <trkpt lat="45.88665" lon="6.1914">
        <ele>1046.53</ele>
        <time>2019-05-17T10:10:05Z</time>
      </trkpt>
      <trkpt lat="45.88666" lon="6.19124">
        <ele>1050.86</ele>
        <time>2019-05-17T10:10:18Z</time>
      </trkpt>
      <trkpt lat="45.8866" lon="6.19113">
        <ele>1054.7</ele>
        <time>2019-05-17T10:10:28Z</time>
      </trkpt>
      <trkpt lat="45.88659" lon="6.1911">
        <ele>1055.67</ele>
        <time>2019-05-17T10:10:31Z</time>
      </trkpt>
      <trkpt lat="45.88654" lon="6.19101">
        <ele>1059.51</ele>
        <time>2019-05-17T10:10:41Z</time>
      </trkpt>
      <trkpt lat="45.88648" lon="6.19093">
        <ele>1061.91</ele>
        <time>2019-05-17T10:10:52Z</time>
      </trkpt>
      <trkpt lat="45.8864" lon="6.19079">
        <ele>1064.32</ele>
        <time>2019-05-17T10:11:03Z</time>
      </trkpt>
      <trkpt lat="45.88639" lon="6.19081">
        <ele>1064.8</ele>
        <time>2019-05-17T10:11:08Z</time>
      </trkpt>
      <trkpt lat="45.88629" lon="6.19078">
        <ele>1064.8</ele>
        <time>2019-05-17T10:11:20Z</time>
      </trkpt>
      <trkpt lat="45.88609" lon="6.19052">
        <ele>1062.39</ele>
        <time>2019-05-17T10:11:31Z</time>
      </trkpt>
      <trkpt lat="45.88607" lon="6.19043">
        <ele>1050.86</ele>
        <time>2019-05-17T10:11:51Z</time>
      </trkpt>
      <trkpt lat="45.88609" lon="6.19045">
        <ele>1046.53</ele>
        <time>2019-05-17T10:12:08Z</time>
      </trkpt>
      <trkpt lat="45.88611" lon="6.19034">
        <ele>1020.1</ele>
        <time>2019-05-17T10:12:40Z</time>
      </trkpt>
      <trkpt lat="45.88615" lon="6.19037">
        <ele>1017.69</ele>
        <time>2019-05-17T10:12:52Z</time>
      </trkpt>
      <trkpt lat="45.88614" lon="6.19041">
        <ele>1017.69</ele>
        <time>2019-05-17T10:12:54Z</time>
      </trkpt>
      <trkpt lat="45.88622" lon="6.19062">
        <ele>1019.13</ele>
        <time>2019-05-17T10:13:07Z</time>
      </trkpt>
      <trkpt lat="45.88626" lon="6.1907">
        <ele>1021.06</ele>
        <time>2019-05-17T10:13:19Z</time>
      </trkpt>
      <trkpt lat="45.88626" lon="6.19075">
        <ele>1022.5</ele>
        <time>2019-05-17T10:13:31Z</time>
      </trkpt>
      <trkpt lat="45.88627" lon="6.19087">
        <ele>1023.94</ele>
        <time>2019-05-17T10:13:44Z</time>
      </trkpt>
      <trkpt lat="45.88626" lon="6.19096">
        <ele>1022.5</ele>
        <time>2019-05-17T10:13:55Z</time>
      </trkpt>
      <trkpt lat="45.88624" lon="6.19097">
        <ele>1020.1</ele>
        <time>2019-05-17T10:13:59Z</time>
      </trkpt>
      <trkpt lat="45.88619" lon="6.19099">
        <ele>1020.58</ele>
        <time>2019-05-17T10:14:12Z</time>
      </trkpt>
      <trkpt lat="45.88616" lon="6.19099">
        <ele>1014.81</ele>
        <time>2019-05-17T10:14:24Z</time>
      </trkpt>
      <trkpt lat="45.88611" lon="6.19097">
        <ele>1001.35</ele>
        <time>2019-05-17T10:14:36Z</time>
      </trkpt>
      <trkpt lat="45.88608" lon="6.19099">
        <ele>996.54</ele>
        <time>2019-05-17T10:14:48Z</time>
      </trkpt>
      <trkpt lat="45.886" lon="6.191">
        <ele>987.41</ele>
        <time>2019-05-17T10:15:00Z</time>
      </trkpt>
      <trkpt lat="45.88591" lon="6.19103">
        <ele>979.72</ele>
        <time>2019-05-17T10:15:12Z</time>
      </trkpt>
      <trkpt lat="45.88579" lon="6.19105">
        <ele>974.43</ele>
        <time>2019-05-17T10:15:24Z</time>
      </trkpt>
      <trkpt lat="45.88583" lon="6.19107">
        <ele>974.43</ele>
        <time>2019-05-17T10:15:41Z</time>
      </trkpt>
      <trkpt lat="45.88586" lon="6.19102">
        <ele>978.76</ele>
        <time>2019-05-17T10:15:51Z</time>
      </trkpt>
      <trkpt lat="45.88589" lon="6.19109">
        <ele>983.57</ele>
        <time>2019-05-17T10:16:04Z</time>
      </trkpt>
      <trkpt lat="45.88591" lon="6.19112">
        <ele>987.89</ele>
        <time>2019-05-17T10:16:15Z</time>
      </trkpt>
      <trkpt lat="45.88592" lon="6.19114">
        <ele>992.22</ele>
        <time>2019-05-17T10:16:26Z</time>
      </trkpt>
      <trkpt lat="45.88589" lon="6.19113">
        <ele>997.99</ele>
        <time>2019-05-17T10:16:39Z</time>
      </trkpt>
      <trkpt lat="45.88581" lon="6.19113">
        <ele>999.91</ele>
        <time>2019-05-17T10:16:49Z</time>
      </trkpt>
      <trkpt lat="45.88577" lon="6.19106">
        <ele>991.74</ele>
        <time>2019-05-17T10:17:02Z</time>
      </trkpt>
      <trkpt lat="45.88578" lon="6.19099">
        <ele>975.88</ele>
        <time>2019-05-17T10:17:13Z</time>
      </trkpt>
      <trkpt lat="45.88572" lon="6.19098">
        <ele>964.34</ele>
        <time>2019-05-17T10:17:28Z</time>
      </trkpt>
      <trkpt lat="45.88562" lon="6.19102">
        <ele>960.01</ele>
        <time>2019-05-17T10:17:39Z</time>
      </trkpt>
      <trkpt lat="45.88552" lon="6.19108">
        <ele>954.25</ele>
        <time>2019-05-17T10:17:48Z</time>
      </trkpt>
      <trkpt lat="45.88546" lon="6.19107">
        <ele>946.56</ele>
        <time>2019-05-17T10:17:58Z</time>
      </trkpt>
      <trkpt lat="45.88542" lon="6.19109">
        <ele>941.27</ele>
        <time>2019-05-17T10:18:08Z</time>
      </trkpt>
      <trkpt lat="45.88542" lon="6.19125">
        <ele>938.86</ele>
        <time>2019-05-17T10:18:20Z</time>
      </trkpt>
      <trkpt lat="45.88539" lon="6.19127">
        <ele>941.75</ele>
        <time>2019-05-17T10:18:32Z</time>
      </trkpt>
      <trkpt lat="45.88536" lon="6.19122">
        <ele>935.5</ele>
        <time>2019-05-17T10:18:43Z</time>
      </trkpt>
      <trkpt lat="45.88535" lon="6.19123">
        <ele>934.06</ele>
        <time>2019-05-17T10:18:44Z</time>
      </trkpt>
      <trkpt lat="45.88531" lon="6.1912">
        <ele>928.77</ele>
        <time>2019-05-17T10:18:54Z</time>
      </trkpt>
      <trkpt lat="45.88528" lon="6.19115">
        <ele>930.21</ele>
        <time>2019-05-17T10:19:07Z</time>
      </trkpt>
      <trkpt lat="45.8852" lon="6.19107">
        <ele>933.1</ele>
        <time>2019-05-17T10:19:21Z</time>
      </trkpt>
      <trkpt lat="45.8852" lon="6.19112">
        <ele>934.06</ele>
        <time>2019-05-17T10:19:31Z</time>
      </trkpt>
      <trkpt lat="45.88512" lon="6.19109">
        <ele>941.75</ele>
        <time>2019-05-17T10:19:44Z</time>
      </trkpt>
      <trkpt lat="45.88496" lon="6.19106">
        <ele>949.92</ele>
        <time>2019-05-17T10:19:55Z</time>
      </trkpt>
      <trkpt lat="45.88494" lon="6.191">
        <ele>957.13</ele>
        <time>2019-05-17T10:20:07Z</time>
      </trkpt>
      <trkpt lat="45.88491" lon="6.19098">
        <ele>960.49</ele>
        <time>2019-05-17T10:20:12Z</time>
      </trkpt>
      <trkpt lat="45.88489" lon="6.19088">
        <ele>970.59</ele>
        <time>2019-05-17T10:20:25Z</time>
      </trkpt>
      <trkpt lat="45.88482" lon="6.19083">
        <ele>977.32</ele>
        <time>2019-05-17T10:20:34Z</time>
      </trkpt>
      <trkpt lat="45.88472" lon="6.19075">
        <ele>977.32</ele>
        <time>2019-05-17T10:20:44Z</time>
      </trkpt>
      <trkpt lat="45.88462" lon="6.19068">
        <ele>967.7</ele>
        <time>2019-05-17T10:20:55Z</time>
      </trkpt>
      <trkpt lat="45.88451" lon="6.19063">
        <ele>963.38</ele>
        <time>2019-05-17T10:21:08Z</time>
      </trkpt>
      <trkpt lat="45.88443" lon="6.1906">
        <ele>957.61</ele>
        <time>2019-05-17T10:21:19Z</time>
      </trkpt>
      <trkpt lat="45.88431" lon="6.19057">
        <ele>948</ele>
        <time>2019-05-17T10:21:30Z</time>
      </trkpt>
      <trkpt lat="45.88424" lon="6.19051">
        <ele>947.52</ele>
        <time>2019-05-17T10:21:40Z</time>
      </trkpt>
      <trkpt lat="45.88419" lon="6.19044">
        <ele>949.44</ele>
        <time>2019-05-17T10:21:47Z</time>
      </trkpt>
      <trkpt lat="45.88417" lon="6.19032">
        <ele>950.4</ele>
        <time>2019-05-17T10:21:58Z</time>
      </trkpt>
      <trkpt lat="45.88421" lon="6.19031">
        <ele>948</ele>
        <time>2019-05-17T10:22:02Z</time>
      </trkpt>
      <trkpt lat="45.8842" lon="6.19032">
        <ele>946.56</ele>
        <time>2019-05-17T10:22:04Z</time>
      </trkpt>
      <trkpt lat="45.88408" lon="6.19025">
        <ele>935.98</ele>
        <time>2019-05-17T10:22:18Z</time>
      </trkpt>
      <trkpt lat="45.88415" lon="6.19026">
        <ele>930.69</ele>
        <time>2019-05-17T10:22:30Z</time>
      </trkpt>
      <trkpt lat="45.8842" lon="6.19025">
        <ele>935.98</ele>
        <time>2019-05-17T10:22:41Z</time>
      </trkpt>
      <trkpt lat="45.88426" lon="6.19023">
        <ele>940.31</ele>
        <time>2019-05-17T10:22:50Z</time>
      </trkpt>
      <trkpt lat="45.88427" lon="6.1902">
        <ele>941.27</ele>
        <time>2019-05-17T10:22:52Z</time>
      </trkpt>
      <trkpt lat="45.88429" lon="6.19005">
        <ele>941.75</ele>
        <time>2019-05-17T10:23:03Z</time>
      </trkpt>
      <trkpt lat="45.88429" lon="6.18996">
        <ele>936.46</ele>
        <time>2019-05-17T10:23:14Z</time>
      </trkpt>
      <trkpt lat="45.88428" lon="6.1899">
        <ele>939.35</ele>
        <time>2019-05-17T10:23:23Z</time>
      </trkpt>
      <trkpt lat="45.8843" lon="6.18981">
        <ele>932.14</ele>
        <time>2019-05-17T10:23:35Z</time>
      </trkpt>
      <trkpt lat="45.88431" lon="6.18968">
        <ele>922.04</ele>
        <time>2019-05-17T10:23:47Z</time>
      </trkpt>
      <trkpt lat="45.88431" lon="6.18962">
        <ele>916.27</ele>
        <time>2019-05-17T10:23:59Z</time>
      </trkpt>
      <trkpt lat="45.88427" lon="6.18959">
        <ele>910.99</ele>
        <time>2019-05-17T10:24:09Z</time>
      </trkpt>
      <trkpt lat="45.8843" lon="6.18952">
        <ele>910.99</ele>
        <time>2019-05-17T10:24:21Z</time>
      </trkpt>
      <trkpt lat="45.88428" lon="6.18943">
        <ele>908.58</ele>
        <time>2019-05-17T10:24:31Z</time>
      </trkpt>
      <trkpt lat="45.88435" lon="6.18932">
        <ele>901.37</ele>
        <time>2019-05-17T10:24:42Z</time>
      </trkpt>
      <trkpt lat="45.88437" lon="6.18924">
        <ele>907.62</ele>
        <time>2019-05-17T10:24:52Z</time>
      </trkpt>
      <trkpt lat="45.88438" lon="6.1891">
        <ele>913.39</ele>
        <time>2019-05-17T10:25:04Z</time>
      </trkpt>
      <trkpt lat="45.88433" lon="6.18893">
        <ele>917.24</ele>
        <time>2019-05-17T10:25:15Z</time>
      </trkpt>
      <trkpt lat="45.88437" lon="6.18888">
        <ele>917.72</ele>
        <time>2019-05-17T10:25:27Z</time>
      </trkpt>
      <trkpt lat="45.88444" lon="6.1888">
        <ele>918.68</ele>
        <time>2019-05-17T10:25:40Z</time>
      </trkpt>
      <trkpt lat="45.88446" lon="6.18875">
        <ele>915.79</ele>
        <time>2019-05-17T10:25:47Z</time>
      </trkpt>
      <trkpt lat="45.88449" lon="6.18871">
        <ele>918.2</ele>
        <time>2019-05-17T10:26:01Z</time>
      </trkpt>
      <trkpt lat="45.88452" lon="6.18857">
        <ele>919.64</ele>
        <time>2019-05-17T10:26:14Z</time>
      </trkpt>
      <trkpt lat="45.88459" lon="6.18841">
        <ele>918.68</ele>
        <time>2019-05-17T10:26:26Z</time>
      </trkpt>
      <trkpt lat="45.88467" lon="6.18822">
        <ele>913.39</ele>
        <time>2019-05-17T10:26:36Z</time>
      </trkpt>
      <trkpt lat="45.88475" lon="6.18801">
        <ele>903.78</ele>
        <time>2019-05-17T10:26:48Z</time>
      </trkpt>
      <trkpt lat="45.88486" lon="6.18779">
        <ele>894.64</ele>
        <time>2019-05-17T10:27:01Z</time>
      </trkpt>
      <trkpt lat="45.88493" lon="6.18766">
        <ele>892.72</ele>
        <time>2019-05-17T10:27:12Z</time>
      </trkpt>
      <trkpt lat="45.88502" lon="6.18747">
        <ele>889.84</ele>
        <time>2019-05-17T10:27:23Z</time>
      </trkpt>
      <trkpt lat="45.88509" lon="6.18726">
        <ele>887.91</ele>
        <time>2019-05-17T10:27:35Z</time>
      </trkpt>
      <trkpt lat="45.88515" lon="6.18713">
        <ele>886.47</ele>
        <time>2019-05-17T10:27:47Z</time>
      </trkpt>
      <trkpt lat="45.88526" lon="6.18694">
        <ele>885.99</ele>
        <time>2019-05-17T10:27:59Z</time>
      </trkpt>
      <trkpt lat="45.88539" lon="6.18683">
        <ele>880.71</ele>
        <time>2019-05-17T10:28:09Z</time>
      </trkpt>
      <trkpt lat="45.88556" lon="6.18669">
        <ele>871.09</ele>
        <time>2019-05-17T10:28:22Z</time>
      </trkpt>
      <trkpt lat="45.88566" lon="6.18651">
        <ele>869.65</ele>
        <time>2019-05-17T10:28:34Z</time>
      </trkpt>
      <trkpt lat="45.88588" lon="6.18617">
        <ele>804.76</ele>
        <time>2019-05-17T10:28:47Z</time>
      </trkpt>
      <trkpt lat="45.88588" lon="6.18618">
        <ele>798.99</ele>
        <time>2019-05-17T10:28:53Z</time>
      </trkpt>
      <trkpt lat="45.88579" lon="6.18621">
        <ele>797.55</ele>
        <time>2019-05-17T10:29:06Z</time>
      </trkpt>
      <trkpt lat="45.88571" lon="6.18623">
        <ele>792.74</ele>
        <time>2019-05-17T10:29:22Z</time>
      </trkpt>
      <trkpt lat="45.88565" lon="6.18623">
        <ele>793.22</ele>
        <time>2019-05-17T10:29:35Z</time>
      </trkpt>
      <trkpt lat="45.88563" lon="6.18621">
        <ele>794.19</ele>
        <time>2019-05-17T10:29:39Z</time>
      </trkpt>
      <trkpt lat="45.88545" lon="6.18622">
        <ele>789.38</ele>
        <time>2019-05-17T10:29:53Z</time>
      </trkpt>
      <trkpt lat="45.88542" lon="6.18629">
        <ele>786.5</ele>
        <time>2019-05-17T10:30:10Z</time>
      </trkpt>
      <trkpt lat="45.88538" lon="6.18632">
        <ele>784.09</ele>
        <time>2019-05-17T10:30:24Z</time>
      </trkpt>
      <trkpt lat="45.8854" lon="6.18639">
        <ele>786.02</ele>
        <time>2019-05-17T10:30:37Z</time>
      </trkpt>
      <trkpt lat="45.88546" lon="6.18636">
        <ele>785.05</ele>
        <time>2019-05-17T10:30:50Z</time>
      </trkpt>
      <trkpt lat="45.8855" lon="6.18639">
        <ele>788.9</ele>
        <time>2019-05-17T10:31:13Z</time>
      </trkpt>
      <trkpt lat="45.88556" lon="6.18639">
        <ele>795.63</ele>
        <time>2019-05-17T10:31:29Z</time>
      </trkpt>
      <trkpt lat="45.88567" lon="6.1864">
        <ele>801.4</ele>
        <time>2019-05-17T10:31:42Z</time>
      </trkpt>
      <trkpt lat="45.88578" lon="6.18638">
        <ele>809.57</ele>
        <time>2019-05-17T10:31:56Z</time>
      </trkpt>
      <trkpt lat="45.88585" lon="6.18634">
        <ele>816.3</ele>
        <time>2019-05-17T10:32:09Z</time>
      </trkpt>
      <trkpt lat="45.88594" lon="6.18628">
        <ele>827.35</ele>
        <time>2019-05-17T10:32:23Z</time>
      </trkpt>
      <trkpt lat="45.88604" lon="6.18619">
        <ele>834.08</ele>
        <time>2019-05-17T10:32:35Z</time>
      </trkpt>
      <trkpt lat="45.88607" lon="6.18616">
        <ele>835.52</ele>
        <time>2019-05-17T10:32:37Z</time>
      </trkpt>
      <trkpt lat="45.8862" lon="6.18605">
        <ele>840.33</ele>
        <time>2019-05-17T10:32:47Z</time>
      </trkpt>
      <trkpt lat="45.88639" lon="6.18582">
        <ele>837.93</ele>
        <time>2019-05-17T10:33:01Z</time>
      </trkpt>
      <trkpt lat="45.88651" lon="6.18583">
        <ele>832.16</ele>
        <time>2019-05-17T10:33:12Z</time>
      </trkpt>
      <trkpt lat="45.88656" lon="6.18579">
        <ele>830.72</ele>
        <time>2019-05-17T10:33:15Z</time>
      </trkpt>
      <trkpt lat="45.8867" lon="6.18572">
        <ele>831.68</ele>
        <time>2019-05-17T10:33:27Z</time>
      </trkpt>
      <trkpt lat="45.88672" lon="6.18571">
        <ele>831.2</ele>
        <time>2019-05-17T10:33:28Z</time>
      </trkpt>
      <trkpt lat="45.88681" lon="6.18558">
        <ele>829.76</ele>
        <time>2019-05-17T10:33:36Z</time>
      </trkpt>
      <trkpt lat="45.88692" lon="6.18546">
        <ele>825.43</ele>
        <time>2019-05-17T10:33:47Z</time>
      </trkpt>
      <trkpt lat="45.88702" lon="6.1853">
        <ele>821.58</ele>
        <time>2019-05-17T10:33:59Z</time>
      </trkpt>
      <trkpt lat="45.88712" lon="6.18517">
        <ele>811.97</ele>
        <time>2019-05-17T10:34:12Z</time>
      </trkpt>
      <trkpt lat="45.88719" lon="6.18505">
        <ele>810.53</ele>
        <time>2019-05-17T10:34:23Z</time>
      </trkpt>
      <trkpt lat="45.88722" lon="6.18493">
        <ele>811.97</ele>
        <time>2019-05-17T10:34:35Z</time>
      </trkpt>
      <trkpt lat="45.88726" lon="6.18486">
        <ele>813.89</ele>
        <time>2019-05-17T10:34:41Z</time>
      </trkpt>
      <trkpt lat="45.88727" lon="6.18479">
        <ele>816.3</ele>
        <time>2019-05-17T10:34:47Z</time>
      </trkpt>
      <trkpt lat="45.88731" lon="6.18463">
        <ele>822.55</ele>
        <time>2019-05-17T10:34:58Z</time>
      </trkpt>
      <trkpt lat="45.88728" lon="6.18448">
        <ele>823.51</ele>
        <time>2019-05-17T10:35:12Z</time>
      </trkpt>
      <trkpt lat="45.88731" lon="6.18434">
        <ele>819.66</ele>
        <time>2019-05-17T10:35:23Z</time>
      </trkpt>
      <trkpt lat="45.88739" lon="6.18414">
        <ele>807.64</ele>
        <time>2019-05-17T10:35:36Z</time>
      </trkpt>
      <trkpt lat="45.8874" lon="6.18412">
        <ele>804.76</ele>
        <time>2019-05-17T10:35:38Z</time>
      </trkpt>
      <trkpt lat="45.88757" lon="6.18387">
        <ele>786.02</ele>
        <time>2019-05-17T10:35:50Z</time>
      </trkpt>
      <trkpt lat="45.88763" lon="6.18376">
        <ele>782.65</ele>
        <time>2019-05-17T10:36:03Z</time>
      </trkpt>
      <trkpt lat="45.88775" lon="6.18361">
        <ele>776.88</ele>
        <time>2019-05-17T10:36:13Z</time>
      </trkpt>
      <trkpt lat="45.88787" lon="6.1835">
        <ele>782.65</ele>
        <time>2019-05-17T10:36:25Z</time>
      </trkpt>
      <trkpt lat="45.88794" lon="6.18338">
        <ele>782.65</ele>
        <time>2019-05-17T10:36:36Z</time>
      </trkpt>
      <trkpt lat="45.88801" lon="6.18318">
        <ele>778.32</ele>
        <time>2019-05-17T10:36:53Z</time>
      </trkpt>
      <trkpt lat="45.88805" lon="6.18313">
        <ele>776.4</ele>
        <time>2019-05-17T10:36:56Z</time>
      </trkpt>
      <trkpt lat="45.88812" lon="6.18308">
        <ele>773.04</ele>
        <time>2019-05-17T10:37:03Z</time>
      </trkpt>
      <trkpt lat="45.88817" lon="6.183">
        <ele>773.04</ele>
        <time>2019-05-17T10:37:10Z</time>
      </trkpt>
      <trkpt lat="45.88821" lon="6.18299">
        <ele>775.92</ele>
        <time>2019-05-17T10:37:15Z</time>
      </trkpt>
      <trkpt lat="45.88828" lon="6.18314">
        <ele>777.36</ele>
        <time>2019-05-17T10:37:26Z</time>
      </trkpt>
      <trkpt lat="45.8883" lon="6.18319">
        <ele>780.73</ele>
        <time>2019-05-17T10:37:36Z</time>
      </trkpt>
      <trkpt lat="45.88832" lon="6.18314">
        <ele>780.25</ele>
        <time>2019-05-17T10:37:50Z</time>
      </trkpt>
      <trkpt lat="45.88838" lon="6.18282">
        <ele>756.21</ele>
        <time>2019-05-17T10:38:13Z</time>
      </trkpt>
      <trkpt lat="45.88844" lon="6.18276">
        <ele>744.2</ele>
        <time>2019-05-17T10:38:33Z</time>
      </trkpt>
      <trkpt lat="45.88847" lon="6.18286">
        <ele>727.37</ele>
        <time>2019-05-17T10:38:46Z</time>
      </trkpt>
      <trkpt lat="45.88846" lon="6.18279">
        <ele>721.13</ele>
        <time>2019-05-17T10:39:02Z</time>
      </trkpt>
      <trkpt lat="45.88848" lon="6.18277">
        <ele>719.2</ele>
        <time>2019-05-17T10:39:16Z</time>
      </trkpt>
      <trkpt lat="45.88853" lon="6.18271">
        <ele>715.84</ele>
        <time>2019-05-17T10:39:33Z</time>
      </trkpt>
      <trkpt lat="45.88853" lon="6.18264">
        <ele>718.72</ele>
        <time>2019-05-17T10:39:47Z</time>
      </trkpt>
      <trkpt lat="45.88853" lon="6.18258">
        <ele>723.05</ele>
        <time>2019-05-17T10:40:00Z</time>
      </trkpt>
      <trkpt lat="45.88855" lon="6.18247">
        <ele>726.89</ele>
        <time>2019-05-17T10:40:12Z</time>
      </trkpt>
      <trkpt lat="45.88857" lon="6.18231">
        <ele>726.89</ele>
        <time>2019-05-17T10:40:22Z</time>
      </trkpt>
      <trkpt lat="45.88858" lon="6.18225">
        <ele>733.14</ele>
        <time>2019-05-17T10:40:36Z</time>
      </trkpt>
      <trkpt lat="45.8886" lon="6.18212">
        <ele>735.55</ele>
        <time>2019-05-17T10:40:48Z</time>
      </trkpt>
      <trkpt lat="45.88861" lon="6.18212">
        <ele>735.55</ele>
        <time>2019-05-17T10:40:49Z</time>
      </trkpt>
      <trkpt lat="45.88865" lon="6.18193">
        <ele>731.22</ele>
        <time>2019-05-17T10:41:03Z</time>
      </trkpt>
      <trkpt lat="45.88869" lon="6.18181">
        <ele>729.78</ele>
        <time>2019-05-17T10:41:14Z</time>
      </trkpt>
      <trkpt lat="45.88872" lon="6.18165">
        <ele>729.3</ele>
        <time>2019-05-17T10:41:26Z</time>
      </trkpt>
      <trkpt lat="45.88873" lon="6.18152">
        <ele>728.82</ele>
        <time>2019-05-17T10:41:37Z</time>
      </trkpt>
      <trkpt lat="45.88874" lon="6.18148">
        <ele>729.3</ele>
        <time>2019-05-17T10:41:39Z</time>
      </trkpt>
      <trkpt lat="45.88874" lon="6.18131">
        <ele>727.86</ele>
        <time>2019-05-17T10:41:50Z</time>
      </trkpt>
      <trkpt lat="45.88875" lon="6.18121">
        <ele>726.41</ele>
        <time>2019-05-17T10:41:57Z</time>
      </trkpt>
      <trkpt lat="45.88872" lon="6.18105">
        <ele>723.05</ele>
        <time>2019-05-17T10:42:08Z</time>
      </trkpt>
      <trkpt lat="45.8887" lon="6.18099">
        <ele>703.82</ele>
        <time>2019-05-17T10:42:21Z</time>
      </trkpt>
      <trkpt lat="45.88873" lon="6.18088">
        <ele>691.33</ele>
        <time>2019-05-17T10:42:32Z</time>
      </trkpt>
      <trkpt lat="45.88876" lon="6.18076">
        <ele>682.67</ele>
        <time>2019-05-17T10:42:44Z</time>
      </trkpt>
      <trkpt lat="45.88877" lon="6.18067">
        <ele>677.87</ele>
        <time>2019-05-17T10:42:58Z</time>
      </trkpt>
      <trkpt lat="45.88881" lon="6.18059">
        <ele>671.62</ele>
        <time>2019-05-17T10:43:09Z</time>
      </trkpt>
      <trkpt lat="45.88882" lon="6.18059">
        <ele>670.18</ele>
        <time>2019-05-17T10:43:12Z</time>
      </trkpt>
      <trkpt lat="45.88892" lon="6.1805">
        <ele>664.89</ele>
        <time>2019-05-17T10:43:26Z</time>
      </trkpt>
      <trkpt lat="45.88896" lon="6.18043">
        <ele>664.41</ele>
        <time>2019-05-17T10:43:35Z</time>
      </trkpt>
      <trkpt lat="45.88896" lon="6.18034">
        <ele>666.81</ele>
        <time>2019-05-17T10:43:48Z</time>
      </trkpt>
      <trkpt lat="45.88898" lon="6.18026">
        <ele>668.73</ele>
        <time>2019-05-17T10:43:58Z</time>
      </trkpt>
      <trkpt lat="45.88897" lon="6.18017">
        <ele>672.58</ele>
        <time>2019-05-17T10:44:09Z</time>
      </trkpt>
      <trkpt lat="45.88896" lon="6.18008">
        <ele>674.02</ele>
        <time>2019-05-17T10:44:21Z</time>
      </trkpt>
      <trkpt lat="45.88901" lon="6.17985">
        <ele>664.89</ele>
        <time>2019-05-17T10:44:39Z</time>
      </trkpt>
      <trkpt lat="45.88907" lon="6.17975">
        <ele>645.66</ele>
        <time>2019-05-17T10:45:05Z</time>
      </trkpt>
      <trkpt lat="45.88907" lon="6.17975">
        <ele>638.93</ele>
        <time>2019-05-17T10:45:25Z</time>
      </trkpt>
      <trkpt lat="45.88904" lon="6.1797">
        <ele>636.53</ele>
        <time>2019-05-17T10:45:36Z</time>
      </trkpt>
      <trkpt lat="45.88907" lon="6.17973">
        <ele>636.53</ele>
        <time>2019-05-17T10:45:49Z</time>
      </trkpt>
      <trkpt lat="45.88904" lon="6.1797">
        <ele>641.82</ele>
        <time>2019-05-17T10:46:01Z</time>
      </trkpt>
      <trkpt lat="45.88896" lon="6.17955">
        <ele>631.24</ele>
        <time>2019-05-17T10:46:14Z</time>
      </trkpt>
      <trkpt lat="45.88887" lon="6.17944">
        <ele>623.55</ele>
        <time>2019-05-17T10:46:25Z</time>
      </trkpt>
      <trkpt lat="45.88885" lon="6.17938">
        <ele>625.47</ele>
        <time>2019-05-17T10:46:34Z</time>
      </trkpt>
      <trkpt lat="45.88881" lon="6.17933">
        <ele>624.03</ele>
        <time>2019-05-17T10:46:38Z</time>
      </trkpt>
      <trkpt lat="45.88873" lon="6.17934">
        <ele>614.42</ele>
        <time>2019-05-17T10:46:49Z</time>
      </trkpt>
      <trkpt lat="45.8887" lon="6.17932">
        <ele>612.5</ele>
        <time>2019-05-17T10:46:54Z</time>
      </trkpt>
      <trkpt lat="45.88864" lon="6.1793">
        <ele>610.57</ele>
        <time>2019-05-17T10:47:02Z</time>
      </trkpt>
      <trkpt lat="45.88856" lon="6.17924">
        <ele>609.61</ele>
        <time>2019-05-17T10:47:12Z</time>
      </trkpt>
      <trkpt lat="45.88845" lon="6.17913">
        <ele>600.96</ele>
        <time>2019-05-17T10:47:26Z</time>
      </trkpt>
      <trkpt lat="45.88844" lon="6.17912">
        <ele>599.52</ele>
        <time>2019-05-17T10:47:27Z</time>
      </trkpt>
      <trkpt lat="45.88843" lon="6.17906">
        <ele>593.75</ele>
        <time>2019-05-17T10:47:32Z</time>
      </trkpt>
      <trkpt lat="45.88826" lon="6.17896">
        <ele>585.58</ele>
        <time>2019-05-17T10:47:43Z</time>
      </trkpt>
      <trkpt lat="45.88817" lon="6.17895">
        <ele>583.18</ele>
        <time>2019-05-17T10:47:51Z</time>
      </trkpt>
      <trkpt lat="45.88797" lon="6.17896">
        <ele>581.73</ele>
        <time>2019-05-17T10:48:09Z</time>
      </trkpt>
      <trkpt lat="45.88778" lon="6.17904">
        <ele>576.45</ele>
        <time>2019-05-17T10:48:23Z</time>
      </trkpt>
      <trkpt lat="45.88776" lon="6.17905">
        <ele>576.45</ele>
        <time>2019-05-17T10:48:27Z</time>
      </trkpt>
      <trkpt lat="45.88776" lon="6.17904">
        <ele>575.49</ele>
        <time>2019-05-17T10:48:34Z</time>
      </trkpt>
      <trkpt lat="45.88766" lon="6.17888">
        <ele>570.2</ele>
        <time>2019-05-17T10:48:49Z</time>
      </trkpt>
      <trkpt lat="45.88759" lon="6.17874">
        <ele>569.72</ele>
        <time>2019-05-17T10:49:03Z</time>
      </trkpt>
      <trkpt lat="45.88743" lon="6.17868">
        <ele>562.03</ele>
        <time>2019-05-17T10:49:16Z</time>
      </trkpt>
      <trkpt lat="45.88734" lon="6.17875">
        <ele>558.66</ele>
        <time>2019-05-17T10:49:32Z</time>
      </trkpt>
      <trkpt lat="45.88728" lon="6.17879">
        <ele>557.22</ele>
        <time>2019-05-17T10:49:45Z</time>
      </trkpt>
      <trkpt lat="45.88716" lon="6.17879">
        <ele>556.26</ele>
        <time>2019-05-17T10:49:58Z</time>
      </trkpt>
      <trkpt lat="45.88707" lon="6.17878">
        <ele>554.34</ele>
        <time>2019-05-17T10:50:10Z</time>
      </trkpt>
      <trkpt lat="45.88696" lon="6.17874">
        <ele>551.93</ele>
        <time>2019-05-17T10:50:25Z</time>
      </trkpt>
      <trkpt lat="45.88693" lon="6.17873">
        <ele>553.86</ele>
        <time>2019-05-17T10:50:29Z</time>
      </trkpt>
      <trkpt lat="45.88679" lon="6.17862">
        <ele>559.62</ele>
        <time>2019-05-17T10:50:39Z</time>
      </trkpt>
      <trkpt lat="45.88666" lon="6.17855">
        <ele>558.66</ele>
        <time>2019-05-17T10:50:44Z</time>
      </trkpt>
      <trkpt lat="45.88665" lon="6.17852">
        <ele>559.14</ele>
        <time>2019-05-17T10:50:46Z</time>
      </trkpt>
      <trkpt lat="45.88678" lon="6.1783">
        <ele>553.38</ele>
        <time>2019-05-17T10:51:02Z</time>
      </trkpt>
      <trkpt lat="45.88695" lon="6.17812">
        <ele>552.41</ele>
        <time>2019-05-17T10:51:20Z</time>
      </trkpt>
      <trkpt lat="45.88709" lon="6.17794">
        <ele>550.49</ele>
        <time>2019-05-17T10:51:35Z</time>
      </trkpt>
      <trkpt lat="45.88714" lon="6.17786">
        <ele>547.61</ele>
        <time>2019-05-17T10:51:49Z</time>
      </trkpt>
    </trkseg>
  </trk>
</gpx>